ASY51 ESPA-LMML
Flight info
| Callsign | ASY51 |
|---|---|
| Flight time | N/A |
| Altitude | 27000 |
| Route | VERAG DCT LAMPI DCT AXUTI DCT ROGTU DCT IBVAR DCT KOSKA DCT INSUK DCT GELDA DCT BALIT/K0650F270 DCT RANOK/N0350F270 DCT NASOK N133 POLON M863 SKARY DCT MOMEP DCT XOMBA DCT VEBAL DCT KOMAR DCT XOLTA M725 SOR M742 AMANO N982 OBAXU DCT NELDA DCT GZO DCT NEBEN |
| Aircraft | C30J/M-SDE2E3FGRY/H |
Departure
| Time | 2026-05-08 03:19 |
|---|---|
| Airport | Luleå Airport (ESPA) |
Arrival
| Time | N/A |
|---|---|
| Airport | Malta International Airport (LMML) |
| Time | Latitude | Longitude | Altitude | Speed | Heading |
|---|---|---|---|---|---|
| 2026-05-08 02:59 | 65.54670 | 22.10429 | 52 ft | 0 kts | 347° |
| 2026-05-08 03:10 | 65.54672 | 22.10418 | 55 ft | 1 kts | 299° |
| 2026-05-08 03:10 | 65.54663 | 22.10416 | 55 ft | 1 kts | 176° |
| 2026-05-08 03:10 | 65.54627 | 22.10507 | 54 ft | 1 kts | 111° |
| 2026-05-08 03:10 | 65.54635 | 22.10551 | 47 ft | 6 kts | 67° |
| 2026-05-08 03:11 | 65.54661 | 22.10684 | 54 ft | 9 kts | 70° |
| 2026-05-08 03:11 | 65.54667 | 22.10813 | 51 ft | 8 kts | 101° |
| 2026-05-08 03:11 | 65.54634 | 22.10955 | 50 ft | 11 kts | 124° |
| 2026-05-08 03:11 | 65.54596 | 22.11090 | 51 ft | 2 kts | 138° |
| 2026-05-08 03:12 | 65.54580 | 22.11119 | 49 ft | 4 kts | 141° |
| 2026-05-08 03:12 | 65.54541 | 22.11198 | 48 ft | 10 kts | 139° |
| 2026-05-08 03:12 | 65.54487 | 22.11301 | 49 ft | 10 kts | 142° |
| 2026-05-08 03:12 | 65.54445 | 22.11410 | 46 ft | 7 kts | 134° |
| 2026-05-08 03:13 | 65.54394 | 22.11479 | 46 ft | 12 kts | 148° |
| 2026-05-08 03:13 | 65.54333 | 22.11585 | 46 ft | 11 kts | 143° |
| 2026-05-08 03:13 | 65.54270 | 22.11700 | 45 ft | 10 kts | 144° |
| 2026-05-08 03:13 | 65.54210 | 22.11809 | 41 ft | 11 kts | 142° |
| 2026-05-08 03:14 | 65.54148 | 22.11921 | 42 ft | 11 kts | 145° |
| 2026-05-08 03:14 | 65.54093 | 22.12038 | 42 ft | 7 kts | 116° |
| 2026-05-08 03:14 | 65.54057 | 22.12118 | 41 ft | 15 kts | 139° |
| 2026-05-08 03:14 | 65.53954 | 22.12351 | 39 ft | 26 kts | 135° |
| 2026-05-08 03:15 | 65.53883 | 22.12525 | 36 ft | 9 kts | 139° |
| 2026-05-08 03:15 | 65.53814 | 22.12683 | 36 ft | 16 kts | 136° |
| 2026-05-08 03:15 | 65.53733 | 22.12871 | 34 ft | 16 kts | 136° |
| 2026-05-08 03:15 | 65.53655 | 22.13059 | 32 ft | 15 kts | 135° |
| 2026-05-08 03:16 | 65.53578 | 22.13235 | 31 ft | 15 kts | 137° |
| 2026-05-08 03:16 | 65.53513 | 22.13391 | 29 ft | 11 kts | 133° |
| 2026-05-08 03:16 | 65.53473 | 22.13499 | 29 ft | 7 kts | 129° |
| 2026-05-08 03:16 | 65.53461 | 22.13588 | 28 ft | 9 kts | 101° |
| 2026-05-08 03:17 | 65.53463 | 22.13752 | 27 ft | 10 kts | 76° |
| 2026-05-08 03:17 | 65.53484 | 22.13843 | 27 ft | 3 kts | 57° |
| 2026-05-08 03:17 | 65.53491 | 22.13864 | 27 ft | 0 kts | 51° |
| 2026-05-08 03:18 | 65.53527 | 22.13933 | 27 ft | 12 kts | 31° |
| 2026-05-08 03:18 | 65.53579 | 22.13975 | 27 ft | 2 kts | 328° |
| 2026-05-08 03:18 | 65.53641 | 22.13841 | 27 ft | 38 kts | 317° |
| 2026-05-08 03:18 | 65.54085 | 22.12849 | 37 ft | 129 kts | 317° |
| 2026-05-08 03:19 | 65.54835 | 22.11144 | 407 ft | 157 kts | 316° |
| 2026-05-08 03:19 | 65.55626 | 22.09230 | 1196 ft | 162 kts | 313° |
| 2026-05-08 03:19 | 65.56279 | 22.06906 | 1902 ft | 177 kts | 287° |
| 2026-05-08 03:19 | 65.56259 | 22.03862 | 2523 ft | 193 kts | 250° |
| 2026-05-08 03:20 | 65.55419 | 22.01366 | 3313 ft | 200 kts | 212° |
| 2026-05-08 03:20 | 65.54071 | 22.00360 | 4153 ft | 207 kts | 190° |
| 2026-05-08 03:20 | 65.52627 | 22.00060 | 5014 ft | 211 kts | 185° |
| 2026-05-08 03:20 | 65.51145 | 21.99938 | 5856 ft | 215 kts | 184° |
| 2026-05-08 03:21 | 65.49638 | 21.99860 | 6703 ft | 218 kts | 184° |
| 2026-05-08 03:21 | 65.48107 | 21.99797 | 7510 ft | 221 kts | 184° |
| 2026-05-08 03:21 | 65.46564 | 21.99743 | 8382 ft | 223 kts | 183° |
| 2026-05-08 03:21 | 65.45004 | 21.99689 | 9239 ft | 226 kts | 183° |
| 2026-05-08 03:22 | 65.43425 | 21.99639 | 10101 ft | 228 kts | 183° |
| 2026-05-08 03:22 | 65.41831 | 21.99587 | 10891 ft | 231 kts | 183° |
| 2026-05-08 03:22 | 65.40213 | 21.99536 | 11700 ft | 233 kts | 184° |
| 2026-05-08 03:22 | 65.38583 | 21.99485 | 12493 ft | 236 kts | 184° |
| 2026-05-08 03:23 | 65.36930 | 21.99436 | 13276 ft | 238 kts | 184° |
| 2026-05-08 03:23 | 65.35281 | 21.99385 | 14019 ft | 241 kts | 184° |
| 2026-05-08 03:23 | 65.33596 | 21.99334 | 14694 ft | 244 kts | 184° |
| 2026-05-08 03:23 | 65.31886 | 21.99281 | 15351 ft | 247 kts | 184° |
| 2026-05-08 03:24 | 65.30154 | 21.99229 | 16005 ft | 250 kts | 184° |
| 2026-05-08 03:24 | 65.28409 | 21.99178 | 16630 ft | 253 kts | 184° |
| 2026-05-08 03:24 | 65.26686 | 21.99129 | 17233 ft | 256 kts | 185° |
| 2026-05-08 03:24 | 65.24896 | 21.99076 | 17854 ft | 258 kts | 185° |
| 2026-05-08 03:25 | 65.23092 | 21.99021 | 18460 ft | 261 kts | 185° |
| 2026-05-08 03:25 | 65.21265 | 21.98963 | 18968 ft | 264 kts | 185° |
| 2026-05-08 03:25 | 65.19416 | 21.98905 | 19446 ft | 267 kts | 185° |
| 2026-05-08 03:25 | 65.17548 | 21.98849 | 19919 ft | 271 kts | 186° |
| 2026-05-08 03:26 | 65.15669 | 21.98793 | 20380 ft | 274 kts | 186° |
| 2026-05-08 03:26 | 65.13748 | 21.98683 | 20791 ft | 277 kts | 189° |
| 2026-05-08 03:26 | 65.11841 | 21.98069 | 21239 ft | 276 kts | 197° |
| 2026-05-08 03:26 | 65.09970 | 21.97021 | 21693 ft | 277 kts | 201° |
| 2026-05-08 03:27 | 65.08095 | 21.95859 | 22134 ft | 279 kts | 201° |
| 2026-05-08 03:27 | 65.06211 | 21.94675 | 22566 ft | 281 kts | 201° |
| 2026-05-08 03:27 | 65.04312 | 21.93477 | 22983 ft | 284 kts | 202° |
| 2026-05-08 03:27 | 65.02395 | 21.92268 | 23383 ft | 286 kts | 202° |
| 2026-05-08 03:28 | 65.00454 | 21.91044 | 23782 ft | 288 kts | 202° |
| 2026-05-08 03:28 | 64.98523 | 21.89828 | 24099 ft | 291 kts | 202° |
| 2026-05-08 03:28 | 64.96567 | 21.88599 | 24368 ft | 293 kts | 203° |
| 2026-05-08 03:28 | 64.94582 | 21.87352 | 24622 ft | 296 kts | 204° |
| 2026-05-08 03:29 | 64.92613 | 21.86117 | 24896 ft | 298 kts | 204° |
| 2026-05-08 03:29 | 64.90576 | 21.84842 | 25181 ft | 300 kts | 204° |
| 2026-05-08 03:29 | 64.88578 | 21.83593 | 25446 ft | 302 kts | 204° |
| 2026-05-08 03:29 | 64.86521 | 21.82310 | 25705 ft | 303 kts | 204° |
| 2026-05-08 03:30 | 64.82462 | 21.79781 | 26177 ft | 307 kts | 205° |
| 2026-05-08 03:30 | 64.78312 | 21.77205 | 26629 ft | 310 kts | 205° |
| 2026-05-08 03:31 | 64.74111 | 21.74607 | 27054 ft | 313 kts | 205° |
| 2026-05-08 03:31 | 64.69826 | 21.71957 | 27257 ft | 322 kts | 205° |
| 2026-05-08 03:32 | 64.67652 | 21.70620 | 27249 ft | 325 kts | 204° |
| 2026-05-08 03:32 | 64.65508 | 21.69303 | 27198 ft | 331 kts | 206° |
| 2026-05-08 03:32 | 64.63262 | 21.67928 | 27257 ft | 335 kts | 206° |
| 2026-05-08 03:32 | 64.60960 | 21.66518 | 27257 ft | 340 kts | 206° |
| 2026-05-08 03:33 | 64.58693 | 21.65132 | 27259 ft | 344 kts | 206° |
| 2026-05-08 03:33 | 64.56329 | 21.63693 | 27258 ft | 348 kts | 206° |
| 2026-05-08 03:33 | 64.53982 | 21.62265 | 27258 ft | 351 kts | 205° |
| 2026-05-08 03:33 | 64.51642 | 21.60844 | 27259 ft | 354 kts | 205° |
| 2026-05-08 03:34 | 64.49223 | 21.59378 | 27257 ft | 356 kts | 205° |
| 2026-05-08 03:34 | 64.46855 | 21.57945 | 27250 ft | 358 kts | 205° |
| 2026-05-08 03:34 | 64.44444 | 21.56489 | 27258 ft | 359 kts | 205° |
| 2026-05-08 03:34 | 64.42018 | 21.55026 | 27256 ft | 360 kts | 205° |
| 2026-05-08 03:35 | 64.39587 | 21.53562 | 27256 ft | 362 kts | 205° |
| 2026-05-08 03:35 | 64.37148 | 21.52098 | 27256 ft | 363 kts | 205° |
| 2026-05-08 03:35 | 64.32489 | 21.49306 | 27252 ft | 363 kts | 206° |
| 2026-05-08 03:36 | 64.30039 | 21.47842 | 27265 ft | 364 kts | 206° |
| 2026-05-08 03:36 | 64.27577 | 21.46371 | 27258 ft | 366 kts | 206° |
| 2026-05-08 03:36 | 64.25111 | 21.44902 | 27257 ft | 366 kts | 206° |
| 2026-05-08 03:36 | 64.22640 | 21.43435 | 27257 ft | 366 kts | 206° |
| 2026-05-08 03:37 | 64.20180 | 21.41976 | 27259 ft | 365 kts | 206° |
| 2026-05-08 03:37 | 64.17757 | 21.40540 | 27260 ft | 365 kts | 206° |
| 2026-05-08 03:37 | 64.15308 | 21.39092 | 27261 ft | 365 kts | 206° |
| 2026-05-08 03:37 | 64.12848 | 21.37640 | 27261 ft | 365 kts | 206° |
| 2026-05-08 03:38 | 64.10396 | 21.36195 | 27265 ft | 365 kts | 206° |
| 2026-05-08 03:38 | 64.07941 | 21.34751 | 27263 ft | 365 kts | 206° |
| 2026-05-08 03:38 | 64.05475 | 21.33305 | 27263 ft | 365 kts | 206° |
| 2026-05-08 03:38 | 64.03013 | 21.31863 | 27235 ft | 365 kts | 207° |
| 2026-05-08 03:39 | 64.00555 | 21.30427 | 27276 ft | 365 kts | 207° |
| 2026-05-08 03:39 | 63.98091 | 21.28988 | 27264 ft | 366 kts | 207° |
| 2026-05-08 03:39 | 63.95619 | 21.27545 | 27266 ft | 367 kts | 206° |
| 2026-05-08 03:39 | 63.93142 | 21.26104 | 27266 ft | 368 kts | 206° |
| 2026-05-08 03:40 | 63.90655 | 21.24661 | 27268 ft | 369 kts | 206° |
| 2026-05-08 03:40 | 63.88170 | 21.23224 | 27268 ft | 368 kts | 206° |
| 2026-05-08 03:40 | 63.85723 | 21.21811 | 27269 ft | 368 kts | 206° |
| 2026-05-08 03:40 | 63.83261 | 21.20389 | 27268 ft | 367 kts | 206° |
| 2026-05-08 03:41 | 63.80790 | 21.18964 | 27266 ft | 367 kts | 206° |
| 2026-05-08 03:41 | 63.78303 | 21.17532 | 27270 ft | 367 kts | 206° |
| 2026-05-08 03:41 | 63.75827 | 21.16112 | 27268 ft | 368 kts | 206° |
| 2026-05-08 03:41 | 63.73313 | 21.14671 | 27221 ft | 367 kts | 206° |
| 2026-05-08 03:42 | 63.70872 | 21.13276 | 27269 ft | 366 kts | 206° |
| 2026-05-08 03:42 | 63.68400 | 21.11864 | 27276 ft | 366 kts | 206° |
| 2026-05-08 03:42 | 63.65952 | 21.10466 | 27271 ft | 367 kts | 206° |
| 2026-05-08 03:42 | 63.63470 | 21.09054 | 27270 ft | 367 kts | 206° |
| 2026-05-08 03:43 | 63.60992 | 21.07648 | 27272 ft | 367 kts | 206° |
| 2026-05-08 03:43 | 63.58517 | 21.06246 | 27273 ft | 367 kts | 206° |
| 2026-05-08 03:43 | 63.56023 | 21.04963 | 27274 ft | 373 kts | 201° |
| 2026-05-08 03:43 | 63.53414 | 21.04278 | 27276 ft | 380 kts | 195° |
| 2026-05-08 03:44 | 63.50748 | 21.04085 | 27277 ft | 385 kts | 191° |
| 2026-05-08 03:44 | 63.48064 | 21.04137 | 27277 ft | 387 kts | 189° |
| 2026-05-08 03:44 | 63.45363 | 21.04250 | 27277 ft | 388 kts | 189° |
| 2026-05-08 03:44 | 63.42672 | 21.04386 | 27248 ft | 387 kts | 189° |
| 2026-05-08 03:45 | 63.39983 | 21.04533 | 27264 ft | 384 kts | 189° |
| 2026-05-08 03:45 | 63.37317 | 21.04682 | 27305 ft | 383 kts | 189° |
| 2026-05-08 03:45 | 63.34644 | 21.04828 | 27276 ft | 385 kts | 189° |
| 2026-05-08 03:45 | 63.31962 | 21.04976 | 27280 ft | 386 kts | 189° |
| 2026-05-08 03:46 | 63.29276 | 21.05127 | 27284 ft | 386 kts | 189° |
| 2026-05-08 03:46 | 63.26622 | 21.05276 | 27277 ft | 387 kts | 189° |
| 2026-05-08 03:46 | 63.23888 | 21.05428 | 27281 ft | 388 kts | 189° |
| 2026-05-08 03:46 | 63.21224 | 21.05576 | 27280 ft | 388 kts | 188° |
| 2026-05-08 03:47 | 63.18524 | 21.05728 | 27278 ft | 388 kts | 189° |
| 2026-05-08 03:47 | 63.15800 | 21.05881 | 27279 ft | 387 kts | 188° |
| 2026-05-08 03:47 | 63.13121 | 21.06031 | 27285 ft | 387 kts | 189° |
| 2026-05-08 03:47 | 63.10428 | 21.06180 | 27276 ft | 387 kts | 189° |
| 2026-05-08 03:48 | 63.07735 | 21.06328 | 27280 ft | 387 kts | 189° |
| 2026-05-08 03:48 | 63.05045 | 21.06476 | 27276 ft | 387 kts | 189° |
| 2026-05-08 03:48 | 63.02344 | 21.06625 | 27283 ft | 387 kts | 189° |
| 2026-05-08 03:48 | 62.99650 | 21.06773 | 27284 ft | 387 kts | 189° |
| 2026-05-08 03:49 | 62.96961 | 21.06923 | 27279 ft | 387 kts | 189° |
| 2026-05-08 03:49 | 62.94339 | 21.07067 | 27282 ft | 387 kts | 189° |
| 2026-05-08 03:49 | 62.91629 | 21.07215 | 27282 ft | 387 kts | 189° |
| 2026-05-08 03:49 | 62.88971 | 21.07352 | 27286 ft | 386 kts | 190° |
| 2026-05-08 03:50 | 62.86267 | 21.07234 | 27297 ft | 383 kts | 193° |
| 2026-05-08 03:50 | 62.83637 | 21.07022 | 27290 ft | 383 kts | 193° |
| 2026-05-08 03:50 | 62.80976 | 21.06809 | 27292 ft | 383 kts | 193° |
| 2026-05-08 03:50 | 62.78322 | 21.06600 | 27297 ft | 383 kts | 193° |
| 2026-05-08 03:51 | 62.75669 | 21.06395 | 27273 ft | 379 kts | 192° |
| 2026-05-08 03:51 | 62.73045 | 21.06194 | 27308 ft | 376 kts | 193° |
| 2026-05-08 03:51 | 62.70428 | 21.05987 | 27298 ft | 377 kts | 193° |
| 2026-05-08 03:51 | 62.67804 | 21.05781 | 27294 ft | 377 kts | 193° |
| 2026-05-08 03:52 | 62.65178 | 21.05575 | 27298 ft | 378 kts | 193° |
| 2026-05-08 03:52 | 62.62546 | 21.05372 | 27299 ft | 378 kts | 193° |
| 2026-05-08 03:52 | 62.59918 | 21.05170 | 27298 ft | 378 kts | 193° |
| 2026-05-08 03:52 | 62.57290 | 21.04970 | 27299 ft | 378 kts | 193° |
| 2026-05-08 03:53 | 62.54665 | 21.04768 | 27300 ft | 378 kts | 193° |
| 2026-05-08 03:53 | 62.52033 | 21.04565 | 27314 ft | 378 kts | 192° |
| 2026-05-08 03:53 | 62.49423 | 21.04364 | 27305 ft | 379 kts | 192° |
| 2026-05-08 03:53 | 62.46786 | 21.04163 | 27308 ft | 379 kts | 192° |
| 2026-05-08 03:54 | 62.44226 | 21.03970 | 27272 ft | 377 kts | 192° |
| 2026-05-08 03:54 | 62.41616 | 21.03774 | 27310 ft | 375 kts | 192° |
| 2026-05-08 03:54 | 62.39005 | 21.03573 | 27312 ft | 375 kts | 192° |
| 2026-05-08 03:54 | 62.36382 | 21.03373 | 27307 ft | 376 kts | 192° |
| 2026-05-08 03:55 | 62.33770 | 21.03176 | 27308 ft | 376 kts | 192° |
| 2026-05-08 03:55 | 62.31147 | 21.02978 | 27310 ft | 376 kts | 192° |
| 2026-05-08 03:55 | 62.28530 | 21.02781 | 27310 ft | 376 kts | 192° |
| 2026-05-08 03:55 | 62.25913 | 21.02584 | 27307 ft | 376 kts | 192° |
| 2026-05-08 03:56 | 62.23301 | 21.02388 | 27311 ft | 376 kts | 192° |
| 2026-05-08 03:56 | 62.20690 | 21.02192 | 27310 ft | 376 kts | 192° |
| 2026-05-08 03:56 | 62.18072 | 21.01996 | 27310 ft | 376 kts | 192° |
| 2026-05-08 03:56 | 62.15470 | 21.01802 | 27313 ft | 376 kts | 192° |
| 2026-05-08 03:57 | 62.12851 | 21.01607 | 27259 ft | 375 kts | 192° |
| 2026-05-08 03:57 | 62.10244 | 21.01416 | 27321 ft | 375 kts | 192° |
| 2026-05-08 03:57 | 62.07643 | 21.01223 | 27319 ft | 375 kts | 192° |
| 2026-05-08 03:57 | 62.05041 | 21.01028 | 27315 ft | 376 kts | 192° |
| 2026-05-08 03:58 | 62.02421 | 21.00833 | 27313 ft | 377 kts | 192° |
| 2026-05-08 03:58 | 61.99789 | 21.00638 | 27318 ft | 377 kts | 192° |
| 2026-05-08 03:58 | 61.97171 | 21.00446 | 27318 ft | 378 kts | 192° |
| 2026-05-08 03:58 | 61.94536 | 21.00253 | 27318 ft | 378 kts | 192° |
| 2026-05-08 03:59 | 61.91919 | 21.00060 | 27318 ft | 378 kts | 192° |
| 2026-05-08 03:59 | 61.89281 | 20.99866 | 27317 ft | 379 kts | 192° |
| 2026-05-08 03:59 | 61.86654 | 20.99675 | 27321 ft | 379 kts | 192° |
| 2026-05-08 03:59 | 61.84015 | 20.99482 | 27320 ft | 379 kts | 192° |
| 2026-05-08 04:00 | 61.81383 | 20.99291 | 27286 ft | 379 kts | 192° |
| 2026-05-08 04:00 | 61.78753 | 20.99100 | 27325 ft | 377 kts | 192° |
| 2026-05-08 04:00 | 61.76154 | 20.98911 | 27329 ft | 378 kts | 192° |
| 2026-05-08 04:00 | 61.73544 | 20.98720 | 27325 ft | 378 kts | 192° |
| 2026-05-08 04:01 | 61.70915 | 20.98529 | 27325 ft | 378 kts | 192° |
| 2026-05-08 04:01 | 61.68282 | 20.98339 | 27323 ft | 379 kts | 192° |
| 2026-05-08 04:01 | 61.65652 | 20.98149 | 27323 ft | 379 kts | 192° |
| 2026-05-08 04:01 | 61.62983 | 20.97956 | 27323 ft | 379 kts | 192° |
| 2026-05-08 04:02 | 61.60352 | 20.97767 | 27323 ft | 379 kts | 192° |
| 2026-05-08 04:02 | 61.57715 | 20.97580 | 27322 ft | 378 kts | 192° |
| 2026-05-08 04:02 | 61.55134 | 20.97394 | 27323 ft | 379 kts | 192° |
| 2026-05-08 04:02 | 61.52462 | 20.97202 | 27323 ft | 379 kts | 192° |
| 2026-05-08 04:03 | 61.49862 | 20.97010 | 27281 ft | 377 kts | 192° |
| 2026-05-08 04:03 | 61.44683 | 20.96047 | 27326 ft | 373 kts | 195° |
| 2026-05-08 04:03 | 61.42103 | 20.95510 | 27329 ft | 373 kts | 195° |
| 2026-05-08 04:04 | 61.39526 | 20.94974 | 27321 ft | 373 kts | 195° |
| 2026-05-08 04:04 | 61.36938 | 20.94438 | 27320 ft | 374 kts | 195° |
| 2026-05-08 04:04 | 61.34346 | 20.93902 | 27320 ft | 374 kts | 195° |
| 2026-05-08 04:04 | 61.31757 | 20.93367 | 27322 ft | 374 kts | 195° |
| 2026-05-08 04:05 | 61.29164 | 20.92831 | 27325 ft | 375 kts | 195° |
| 2026-05-08 04:05 | 61.26566 | 20.92299 | 27329 ft | 375 kts | 195° |
| 2026-05-08 04:05 | 61.23978 | 20.91769 | 27330 ft | 375 kts | 195° |
| 2026-05-08 04:05 | 61.21387 | 20.91239 | 27327 ft | 375 kts | 195° |
| 2026-05-08 04:06 | 61.18786 | 20.90707 | 27308 ft | 374 kts | 194° |
| 2026-05-08 04:06 | 61.16200 | 20.90180 | 27335 ft | 373 kts | 194° |
| 2026-05-08 04:06 | 61.13612 | 20.89652 | 27333 ft | 373 kts | 194° |
| 2026-05-08 04:06 | 61.11028 | 20.89125 | 27331 ft | 373 kts | 194° |
| 2026-05-08 04:07 | 61.08444 | 20.88599 | 27328 ft | 373 kts | 194° |
| 2026-05-08 04:07 | 61.05854 | 20.88073 | 27329 ft | 374 kts | 194° |
| 2026-05-08 04:07 | 61.03303 | 20.87558 | 27329 ft | 373 kts | 194° |
| 2026-05-08 04:07 | 61.00748 | 20.87043 | 27331 ft | 373 kts | 194° |
| 2026-05-08 04:08 | 60.98168 | 20.86521 | 27331 ft | 373 kts | 194° |
| 2026-05-08 04:08 | 60.96457 | 20.86176 | 27331 ft | 373 kts | 194° |
| 2026-05-08 04:08 | 60.93876 | 20.85658 | 27330 ft | 372 kts | 194° |
| 2026-05-08 04:08 | 60.91303 | 20.85140 | 27332 ft | 372 kts | 194° |
| 2026-05-08 04:09 | 60.88723 | 20.84622 | 27315 ft | 371 kts | 194° |
| 2026-05-08 04:09 | 60.86178 | 20.84113 | 27335 ft | 371 kts | 194° |
| 2026-05-08 04:09 | 60.83615 | 20.83600 | 27333 ft | 371 kts | 194° |
| 2026-05-08 04:09 | 60.81045 | 20.83088 | 27331 ft | 371 kts | 194° |
| 2026-05-08 04:10 | 60.78482 | 20.82577 | 27333 ft | 371 kts | 194° |
| 2026-05-08 04:10 | 60.75914 | 20.82067 | 27334 ft | 371 kts | 194° |
| 2026-05-08 04:10 | 60.73343 | 20.81596 | 27330 ft | 372 kts | 192° |
| 2026-05-08 04:10 | 60.70785 | 20.81340 | 27334 ft | 373 kts | 191° |
| 2026-05-08 04:11 | 60.68195 | 20.81107 | 27334 ft | 373 kts | 191° |
| 2026-05-08 04:11 | 60.65565 | 20.80862 | 27334 ft | 373 kts | 191° |
| 2026-05-08 04:11 | 60.62969 | 20.80620 | 27331 ft | 373 kts | 191° |
| 2026-05-08 04:11 | 60.60381 | 20.80379 | 27329 ft | 373 kts | 191° |
| 2026-05-08 04:12 | 60.57792 | 20.80137 | 27332 ft | 371 kts | 190° |
| 2026-05-08 04:12 | 60.55211 | 20.79895 | 27339 ft | 371 kts | 190° |
| 2026-05-08 04:12 | 60.52647 | 20.79654 | 27336 ft | 371 kts | 190° |
| 2026-05-08 04:12 | 60.50093 | 20.79415 | 27333 ft | 371 kts | 190° |
| 2026-05-08 04:13 | 60.47513 | 20.79176 | 27337 ft | 371 kts | 190° |
| 2026-05-08 04:13 | 60.44932 | 20.78935 | 27336 ft | 371 kts | 190° |
| 2026-05-08 04:13 | 60.42350 | 20.78695 | 27333 ft | 371 kts | 190° |
| 2026-05-08 04:13 | 60.39768 | 20.78455 | 27337 ft | 371 kts | 190° |
| 2026-05-08 04:14 | 60.37191 | 20.78217 | 27333 ft | 371 kts | 190° |
| 2026-05-08 04:14 | 60.34624 | 20.77979 | 27334 ft | 371 kts | 190° |
| 2026-05-08 04:14 | 60.32041 | 20.77740 | 27338 ft | 371 kts | 190° |
| 2026-05-08 04:14 | 60.29466 | 20.77502 | 27322 ft | 371 kts | 190° |
| 2026-05-08 04:15 | 60.26888 | 20.77266 | 27315 ft | 370 kts | 189° |
| 2026-05-08 04:15 | 60.24325 | 20.77032 | 27337 ft | 369 kts | 189° |
| 2026-05-08 04:15 | 60.21759 | 20.76796 | 27333 ft | 369 kts | 189° |
| 2026-05-08 04:15 | 60.19191 | 20.76560 | 27330 ft | 369 kts | 189° |
| 2026-05-08 04:16 | 60.16641 | 20.76327 | 27333 ft | 369 kts | 189° |
| 2026-05-08 04:16 | 60.14073 | 20.76092 | 27332 ft | 369 kts | 189° |
| 2026-05-08 04:16 | 60.11507 | 20.75858 | 27331 ft | 369 kts | 189° |
| 2026-05-08 04:16 | 60.08941 | 20.75625 | 27331 ft | 369 kts | 189° |
| 2026-05-08 04:17 | 60.06343 | 20.75388 | 27331 ft | 369 kts | 189° |
| 2026-05-08 04:17 | 60.03809 | 20.75159 | 27334 ft | 369 kts | 189° |
| 2026-05-08 04:17 | 60.01227 | 20.74924 | 27334 ft | 369 kts | 189° |
| 2026-05-08 04:17 | 59.98666 | 20.74693 | 27333 ft | 369 kts | 189° |
| 2026-05-08 04:18 | 59.96155 | 20.74467 | 27332 ft | 369 kts | 189° |
| 2026-05-08 04:18 | 59.93590 | 20.74236 | 27332 ft | 369 kts | 189° |
| 2026-05-08 04:18 | 59.91025 | 20.74004 | 27332 ft | 369 kts | 189° |
| 2026-05-08 04:18 | 59.88467 | 20.73774 | 27329 ft | 369 kts | 189° |
| 2026-05-08 04:19 | 59.85900 | 20.73545 | 27330 ft | 369 kts | 189° |
| 2026-05-08 04:19 | 59.83337 | 20.73316 | 27328 ft | 369 kts | 189° |
| 2026-05-08 04:19 | 59.80774 | 20.73087 | 27328 ft | 369 kts | 189° |
| 2026-05-08 04:19 | 59.78205 | 20.72858 | 27328 ft | 369 kts | 189° |
| 2026-05-08 04:20 | 59.75637 | 20.72629 | 27328 ft | 369 kts | 189° |
| 2026-05-08 04:20 | 59.73071 | 20.72400 | 27329 ft | 369 kts | 189° |
| 2026-05-08 04:20 | 59.70507 | 20.72171 | 27327 ft | 369 kts | 189° |
| 2026-05-08 04:20 | 59.67942 | 20.71944 | 27290 ft | 368 kts | 189° |
| 2026-05-08 04:21 | 59.65412 | 20.71721 | 27335 ft | 367 kts | 189° |
| 2026-05-08 04:21 | 59.62871 | 20.71496 | 27329 ft | 366 kts | 189° |
| 2026-05-08 04:21 | 59.60322 | 20.71270 | 27324 ft | 366 kts | 189° |
| 2026-05-08 04:21 | 59.57777 | 20.71047 | 27325 ft | 366 kts | 189° |
| 2026-05-08 04:22 | 59.55233 | 20.70822 | 27329 ft | 366 kts | 189° |
| 2026-05-08 04:22 | 59.52685 | 20.70599 | 27327 ft | 366 kts | 189° |
| 2026-05-08 04:22 | 59.50143 | 20.70376 | 27324 ft | 366 kts | 189° |
| 2026-05-08 04:22 | 59.47672 | 20.70159 | 27325 ft | 366 kts | 189° |
| 2026-05-08 04:23 | 59.45130 | 20.69936 | 27325 ft | 366 kts | 189° |
| 2026-05-08 04:23 | 59.42585 | 20.69714 | 27325 ft | 366 kts | 189° |
| 2026-05-08 04:23 | 59.40041 | 20.69492 | 27325 ft | 366 kts | 189° |
| 2026-05-08 04:23 | 59.37504 | 20.69271 | 27314 ft | 365 kts | 188° |
| 2026-05-08 04:24 | 59.34967 | 20.69052 | 27330 ft | 363 kts | 188° |
| 2026-05-08 04:24 | 59.32406 | 20.68828 | 27324 ft | 363 kts | 188° |
| 2026-05-08 04:24 | 59.29891 | 20.68610 | 27322 ft | 363 kts | 188° |
| 2026-05-08 04:24 | 59.27363 | 20.68391 | 27323 ft | 363 kts | 188° |
| 2026-05-08 04:25 | 59.24874 | 20.68177 | 27326 ft | 363 kts | 188° |
| 2026-05-08 04:25 | 59.22353 | 20.67959 | 27326 ft | 363 kts | 188° |
| 2026-05-08 04:25 | 59.19828 | 20.67741 | 27326 ft | 363 kts | 188° |
| 2026-05-08 04:25 | 59.17316 | 20.67351 | 27323 ft | 360 kts | 192° |
| 2026-05-08 04:26 | 59.14830 | 20.66775 | 27321 ft | 360 kts | 193° |
| 2026-05-08 04:26 | 59.12341 | 20.66183 | 27321 ft | 360 kts | 193° |
| 2026-05-08 04:26 | 59.09854 | 20.65587 | 27288 ft | 360 kts | 193° |
| 2026-05-08 04:26 | 59.07371 | 20.64991 | 27312 ft | 359 kts | 192° |
| 2026-05-08 04:27 | 59.04893 | 20.64397 | 27322 ft | 358 kts | 192° |
| 2026-05-08 04:27 | 59.02420 | 20.63802 | 27320 ft | 358 kts | 192° |
| 2026-05-08 04:27 | 58.99953 | 20.63209 | 27320 ft | 357 kts | 192° |
| 2026-05-08 04:27 | 58.97492 | 20.62619 | 27318 ft | 357 kts | 192° |
| 2026-05-08 04:28 | 58.95018 | 20.62026 | 27317 ft | 357 kts | 192° |
| 2026-05-08 04:28 | 58.92549 | 20.61437 | 27317 ft | 357 kts | 192° |
| 2026-05-08 04:28 | 58.90077 | 20.60847 | 27317 ft | 357 kts | 192° |
| 2026-05-08 04:28 | 58.87608 | 20.60259 | 27317 ft | 357 kts | 192° |
| 2026-05-08 04:29 | 58.85140 | 20.59672 | 27314 ft | 358 kts | 192° |
| 2026-05-08 04:29 | 58.82671 | 20.59086 | 27314 ft | 358 kts | 192° |
| 2026-05-08 04:29 | 58.80217 | 20.58503 | 27293 ft | 357 kts | 191° |
| 2026-05-08 04:29 | 58.77753 | 20.57920 | 27314 ft | 356 kts | 191° |
| 2026-05-08 04:30 | 58.75293 | 20.57338 | 27315 ft | 356 kts | 191° |
| 2026-05-08 04:30 | 58.72834 | 20.56758 | 27311 ft | 356 kts | 191° |
| 2026-05-08 04:30 | 58.70380 | 20.56180 | 27314 ft | 355 kts | 191° |
| 2026-05-08 04:30 | 58.67927 | 20.55602 | 27315 ft | 354 kts | 191° |
| 2026-05-08 04:31 | 58.65480 | 20.55027 | 27312 ft | 354 kts | 191° |
| 2026-05-08 04:31 | 58.63058 | 20.54458 | 27312 ft | 354 kts | 191° |
| 2026-05-08 04:31 | 58.60616 | 20.53885 | 27312 ft | 354 kts | 191° |
| 2026-05-08 04:31 | 58.58167 | 20.53312 | 27312 ft | 354 kts | 191° |
| 2026-05-08 04:32 | 58.55721 | 20.52740 | 27309 ft | 354 kts | 191° |
| 2026-05-08 04:32 | 58.53281 | 20.52171 | 27309 ft | 354 kts | 191° |
| 2026-05-08 04:32 | 58.50836 | 20.51601 | 27298 ft | 354 kts | 190° |
| 2026-05-08 04:32 | 58.48396 | 20.51034 | 27312 ft | 353 kts | 190° |
| 2026-05-08 04:33 | 58.45960 | 20.50467 | 27310 ft | 353 kts | 190° |
| 2026-05-08 04:33 | 58.43515 | 20.49900 | 27304 ft | 353 kts | 190° |
| 2026-05-08 04:33 | 58.41080 | 20.49336 | 27304 ft | 353 kts | 190° |
| 2026-05-08 04:33 | 58.38640 | 20.48769 | 27304 ft | 353 kts | 191° |
| 2026-05-08 04:34 | 58.36230 | 20.47928 | 27304 ft | 351 kts | 196° |
| 2026-05-08 04:34 | 58.33872 | 20.46738 | 27304 ft | 350 kts | 200° |
| 2026-05-08 04:34 | 58.31552 | 20.45352 | 27304 ft | 349 kts | 201° |
| 2026-05-08 04:34 | 58.29241 | 20.43919 | 27305 ft | 349 kts | 201° |
| 2026-05-08 04:35 | 58.26940 | 20.42469 | 27302 ft | 349 kts | 202° |
| 2026-05-08 04:35 | 58.24639 | 20.41008 | 27291 ft | 349 kts | 201° |
| 2026-05-08 04:35 | 58.22335 | 20.39541 | 27302 ft | 349 kts | 201° |
| 2026-05-08 04:35 | 58.20036 | 20.38077 | 27305 ft | 349 kts | 201° |
| 2026-05-08 04:36 | 58.17735 | 20.36612 | 27305 ft | 349 kts | 201° |
| 2026-05-08 04:36 | 58.15434 | 20.35148 | 27294 ft | 349 kts | 201° |
| 2026-05-08 04:36 | 58.13157 | 20.33702 | 27296 ft | 349 kts | 201° |
| 2026-05-08 04:36 | 58.10858 | 20.32242 | 27294 ft | 349 kts | 201° |
| 2026-05-08 04:37 | 58.08581 | 20.30800 | 27296 ft | 349 kts | 201° |
| 2026-05-08 04:37 | 58.06284 | 20.29346 | 27295 ft | 349 kts | 201° |
| 2026-05-08 04:37 | 58.03980 | 20.27891 | 27295 ft | 349 kts | 201° |
| 2026-05-08 04:37 | 58.01674 | 20.26436 | 27297 ft | 349 kts | 201° |
| 2026-05-08 04:38 | 57.99368 | 20.24983 | 27295 ft | 349 kts | 201° |
| 2026-05-08 04:38 | 57.97095 | 20.23552 | 27288 ft | 349 kts | 200° |
| 2026-05-08 04:38 | 57.94792 | 20.22106 | 27292 ft | 349 kts | 200° |
| 2026-05-08 04:38 | 57.92486 | 20.20659 | 27294 ft | 349 kts | 200° |
| 2026-05-08 04:39 | 57.90184 | 20.19217 | 27293 ft | 349 kts | 200° |
| 2026-05-08 04:39 | 57.87881 | 20.17777 | 27293 ft | 349 kts | 200° |
| 2026-05-08 04:39 | 57.85579 | 20.16338 | 27292 ft | 349 kts | 200° |
| 2026-05-08 04:39 | 57.83276 | 20.14902 | 27293 ft | 349 kts | 200° |
| 2026-05-08 04:40 | 57.80994 | 20.13479 | 27294 ft | 349 kts | 200° |
| 2026-05-08 04:40 | 57.78700 | 20.12052 | 27293 ft | 349 kts | 200° |
| 2026-05-08 04:40 | 57.76398 | 20.10622 | 27291 ft | 349 kts | 200° |
| 2026-05-08 04:40 | 57.74091 | 20.09191 | 27290 ft | 349 kts | 200° |
| 2026-05-08 04:41 | 57.71787 | 20.07763 | 27283 ft | 349 kts | 200° |
| 2026-05-08 04:41 | 57.69479 | 20.06334 | 27286 ft | 349 kts | 199° |
| 2026-05-08 04:41 | 57.67175 | 20.04911 | 27288 ft | 349 kts | 199° |
| 2026-05-08 04:41 | 57.64882 | 20.03496 | 27288 ft | 350 kts | 199° |
| 2026-05-08 04:42 | 57.62572 | 20.02073 | 27285 ft | 350 kts | 199° |
| 2026-05-08 04:42 | 57.60267 | 20.00654 | 27285 ft | 350 kts | 199° |
| 2026-05-08 04:42 | 57.57986 | 19.99252 | 27285 ft | 350 kts | 199° |
| 2026-05-08 04:42 | 57.55735 | 19.97870 | 27285 ft | 350 kts | 199° |
| 2026-05-08 04:43 | 57.53425 | 19.96455 | 27285 ft | 350 kts | 199° |
| 2026-05-08 04:43 | 57.51144 | 19.95059 | 27285 ft | 350 kts | 199° |
| 2026-05-08 04:43 | 57.48835 | 19.93648 | 27285 ft | 350 kts | 199° |
| 2026-05-08 04:43 | 57.46547 | 19.92251 | 27285 ft | 351 kts | 199° |
| 2026-05-08 04:44 | 57.44268 | 19.90861 | 27283 ft | 351 kts | 197° |
| 2026-05-08 04:44 | 57.41955 | 19.89454 | 27283 ft | 352 kts | 197° |
| 2026-05-08 04:44 | 57.39641 | 19.88047 | 27281 ft | 353 kts | 197° |
| 2026-05-08 04:44 | 57.37332 | 19.86645 | 27284 ft | 353 kts | 197° |
| 2026-05-08 04:45 | 57.34997 | 19.85229 | 27279 ft | 354 kts | 197° |
| 2026-05-08 04:45 | 57.32662 | 19.83816 | 27283 ft | 354 kts | 197° |
| 2026-05-08 04:45 | 57.30337 | 19.82411 | 27284 ft | 354 kts | 197° |
| 2026-05-08 04:45 | 57.27997 | 19.80997 | 27283 ft | 354 kts | 197° |
| 2026-05-08 04:46 | 57.25655 | 19.79584 | 27283 ft | 355 kts | 197° |
| 2026-05-08 04:46 | 57.23332 | 19.78186 | 27280 ft | 355 kts | 197° |
| 2026-05-08 04:46 | 57.20986 | 19.76774 | 27280 ft | 355 kts | 197° |
| 2026-05-08 04:46 | 57.18634 | 19.75362 | 27281 ft | 356 kts | 197° |
| 2026-05-08 04:47 | 57.16284 | 19.73953 | 27278 ft | 355 kts | 197° |
| 2026-05-08 04:47 | 57.13938 | 19.72547 | 27275 ft | 355 kts | 197° |
| 2026-05-08 04:47 | 57.11585 | 19.71139 | 27275 ft | 355 kts | 197° |
| 2026-05-08 04:47 | 57.09228 | 19.69731 | 27276 ft | 356 kts | 197° |
| 2026-05-08 04:48 | 57.06903 | 19.68344 | 27281 ft | 356 kts | 197° |
| 2026-05-08 04:48 | 57.04557 | 19.66946 | 27280 ft | 356 kts | 197° |
| 2026-05-08 04:48 | 57.02204 | 19.65547 | 27273 ft | 355 kts | 197° |
| 2026-05-08 04:48 | 56.99871 | 19.64160 | 27273 ft | 354 kts | 197° |
| 2026-05-08 04:49 | 56.98291 | 19.63223 | 27275 ft | 354 kts | 197° |
| 2026-05-08 04:49 | 56.95957 | 19.61839 | 27274 ft | 355 kts | 196° |
| 2026-05-08 04:49 | 56.93605 | 19.60447 | 27274 ft | 355 kts | 197° |
| 2026-05-08 04:49 | 56.91294 | 19.59080 | 27273 ft | 356 kts | 196° |
| 2026-05-08 04:50 | 56.88946 | 19.57693 | 27270 ft | 355 kts | 196° |
| 2026-05-08 04:50 | 56.86575 | 19.56417 | 27272 ft | 354 kts | 192° |
| 2026-05-08 04:50 | 56.84188 | 19.55345 | 27276 ft | 354 kts | 192° |
| 2026-05-08 04:50 | 56.81823 | 19.54271 | 27262 ft | 354 kts | 192° |
| 2026-05-08 04:51 | 56.79467 | 19.53192 | 27265 ft | 354 kts | 192° |
| 2026-05-08 04:51 | 56.77092 | 19.52103 | 27265 ft | 354 kts | 193° |
| 2026-05-08 04:51 | 56.74707 | 19.51008 | 27270 ft | 354 kts | 193° |
| 2026-05-08 04:51 | 56.72324 | 19.49913 | 27266 ft | 354 kts | 193° |
| 2026-05-08 04:52 | 56.69948 | 19.48823 | 27258 ft | 353 kts | 192° |
| 2026-05-08 04:52 | 56.67594 | 19.47746 | 27263 ft | 354 kts | 192° |
| 2026-05-08 04:52 | 56.65237 | 19.46669 | 27267 ft | 353 kts | 192° |
| 2026-05-08 04:52 | 56.62872 | 19.45588 | 27261 ft | 352 kts | 192° |
| 2026-05-08 04:53 | 56.60549 | 19.44527 | 27258 ft | 350 kts | 192° |
| 2026-05-08 04:53 | 56.58190 | 19.43453 | 27258 ft | 350 kts | 192° |
| 2026-05-08 04:53 | 56.55835 | 19.42382 | 27258 ft | 351 kts | 193° |
| 2026-05-08 04:53 | 56.53482 | 19.41313 | 27265 ft | 351 kts | 192° |
| 2026-05-08 04:54 | 56.51132 | 19.40247 | 27250 ft | 351 kts | 192° |
| 2026-05-08 04:54 | 56.48774 | 19.39180 | 27254 ft | 352 kts | 192° |
| 2026-05-08 04:54 | 56.46402 | 19.38105 | 27252 ft | 352 kts | 192° |
| 2026-05-08 04:54 | 56.44035 | 19.37038 | 27257 ft | 351 kts | 193° |
| 2026-05-08 04:55 | 56.41693 | 19.35980 | 27262 ft | 343 kts | 193° |
| 2026-05-08 04:55 | 56.39411 | 19.34952 | 27264 ft | 338 kts | 194° |
| 2026-05-08 04:55 | 56.37151 | 19.33934 | 27252 ft | 333 kts | 194° |
| 2026-05-08 04:55 | 56.34910 | 19.32928 | 27253 ft | 331 kts | 194° |
| 2026-05-08 04:56 | 56.32690 | 19.31932 | 27255 ft | 332 kts | 194° |
| 2026-05-08 04:56 | 56.30446 | 19.30927 | 27253 ft | 333 kts | 194° |
| 2026-05-08 04:56 | 56.28195 | 19.29920 | 27250 ft | 333 kts | 194° |
| 2026-05-08 04:56 | 56.25938 | 19.28911 | 27245 ft | 334 kts | 194° |
| 2026-05-08 04:57 | 56.23689 | 19.27907 | 27250 ft | 335 kts | 194° |
| 2026-05-08 04:57 | 56.21430 | 19.26899 | 27256 ft | 335 kts | 194° |
| 2026-05-08 04:57 | 56.19165 | 19.25891 | 27245 ft | 336 kts | 194° |
| 2026-05-08 04:57 | 56.16897 | 19.24883 | 27244 ft | 336 kts | 194° |
| 2026-05-08 04:58 | 56.14638 | 19.23880 | 27258 ft | 335 kts | 194° |
| 2026-05-08 04:58 | 56.12389 | 19.22880 | 27245 ft | 330 kts | 194° |
| 2026-05-08 04:58 | 56.10179 | 19.21901 | 27241 ft | 325 kts | 194° |
| 2026-05-08 04:58 | 56.07990 | 19.20932 | 27248 ft | 323 kts | 194° |
| 2026-05-08 04:59 | 56.05802 | 19.19965 | 27241 ft | 324 kts | 194° |
| 2026-05-08 04:59 | 56.03645 | 19.19013 | 27241 ft | 324 kts | 194° |
| 2026-05-08 04:59 | 56.01450 | 19.18045 | 27241 ft | 325 kts | 194° |
| 2026-05-08 04:59 | 55.99268 | 19.17084 | 27249 ft | 326 kts | 194° |
| 2026-05-08 05:00 | 55.97061 | 19.16113 | 27235 ft | 326 kts | 194° |
| 2026-05-08 05:00 | 55.94859 | 19.15145 | 27237 ft | 327 kts | 194° |
| 2026-05-08 05:00 | 55.92650 | 19.14176 | 27244 ft | 327 kts | 194° |
| 2026-05-08 05:00 | 55.90434 | 19.13204 | 27236 ft | 327 kts | 194° |
| 2026-05-08 05:01 | 55.88224 | 19.12237 | 27247 ft | 327 kts | 194° |
| 2026-05-08 05:01 | 55.86027 | 19.11277 | 27229 ft | 325 kts | 193° |
| 2026-05-08 05:01 | 55.83836 | 19.10320 | 27229 ft | 323 kts | 193° |
| 2026-05-08 05:01 | 55.81648 | 19.09475 | 27231 ft | 322 kts | 189° |
| 2026-05-08 05:02 | 55.79412 | 19.08985 | 27232 ft | 323 kts | 186° |
| 2026-05-08 05:02 | 55.77182 | 19.08607 | 27231 ft | 324 kts | 186° |
| 2026-05-08 05:02 | 55.74931 | 19.08242 | 27231 ft | 324 kts | 185° |
| 2026-05-08 05:02 | 55.72687 | 19.07890 | 27231 ft | 324 kts | 185° |
| 2026-05-08 05:03 | 55.70442 | 19.07544 | 27233 ft | 325 kts | 185° |
| 2026-05-08 05:03 | 55.68190 | 19.07201 | 27233 ft | 324 kts | 185° |
| 2026-05-08 05:03 | 55.65941 | 19.06860 | 27228 ft | 324 kts | 185° |
| 2026-05-08 05:03 | 55.63688 | 19.06519 | 27228 ft | 324 kts | 185° |
| 2026-05-08 05:04 | 55.61445 | 19.06181 | 27241 ft | 323 kts | 185° |
| 2026-05-08 05:04 | 55.59210 | 19.05845 | 27228 ft | 323 kts | 185° |
| 2026-05-08 05:04 | 55.56981 | 19.05510 | 27226 ft | 322 kts | 185° |
| 2026-05-08 05:04 | 55.54748 | 19.05175 | 27228 ft | 321 kts | 185° |
| 2026-05-08 05:05 | 55.52516 | 19.04841 | 27226 ft | 322 kts | 185° |
| 2026-05-08 05:05 | 55.50295 | 19.04509 | 27226 ft | 322 kts | 185° |
| 2026-05-08 05:05 | 55.48063 | 19.04175 | 27226 ft | 323 kts | 185° |
| 2026-05-08 05:05 | 55.45829 | 19.03842 | 27222 ft | 322 kts | 185° |
| 2026-05-08 05:06 | 55.43591 | 19.03509 | 27222 ft | 322 kts | 185° |
| 2026-05-08 05:06 | 55.41359 | 19.03177 | 27223 ft | 322 kts | 185° |
| 2026-05-08 05:06 | 55.39123 | 19.02844 | 27223 ft | 322 kts | 185° |
| 2026-05-08 05:06 | 55.36893 | 19.02513 | 27223 ft | 322 kts | 185° |
| 2026-05-08 05:07 | 55.34688 | 19.02186 | 27234 ft | 322 kts | 184° |
| 2026-05-08 05:07 | 55.32468 | 19.01858 | 27217 ft | 319 kts | 184° |
| 2026-05-08 05:07 | 55.30254 | 19.01530 | 27214 ft | 317 kts | 184° |
| 2026-05-08 05:07 | 55.28059 | 19.01205 | 27216 ft | 317 kts | 184° |
| 2026-05-08 05:08 | 55.25869 | 19.00883 | 27220 ft | 317 kts | 184° |
| 2026-05-08 05:08 | 55.23662 | 19.00558 | 27220 ft | 318 kts | 184° |
| 2026-05-08 05:08 | 55.21457 | 19.00234 | 27220 ft | 318 kts | 184° |
| 2026-05-08 05:08 | 55.19245 | 18.99909 | 27220 ft | 319 kts | 184° |
| 2026-05-08 05:09 | 55.17041 | 18.99586 | 27220 ft | 319 kts | 184° |
| 2026-05-08 05:09 | 55.14903 | 18.99272 | 27220 ft | 319 kts | 184° |
| 2026-05-08 05:09 | 55.12695 | 18.98948 | 27201 ft | 316 kts | 185° |
| 2026-05-08 05:09 | 55.10514 | 18.98629 | 27212 ft | 312 kts | 185° |
| 2026-05-08 05:10 | 55.08365 | 18.98315 | 27229 ft | 310 kts | 185° |
| 2026-05-08 05:10 | 55.04081 | 18.97690 | 27213 ft | 309 kts | 184° |
| 2026-05-08 05:10 | 55.01937 | 18.97378 | 27209 ft | 309 kts | 184° |
| 2026-05-08 05:11 | 54.99789 | 18.97065 | 27211 ft | 310 kts | 184° |
| 2026-05-08 05:11 | 54.97641 | 18.96754 | 27209 ft | 310 kts | 184° |
| 2026-05-08 05:11 | 54.95477 | 18.96440 | 27209 ft | 311 kts | 184° |
| 2026-05-08 05:11 | 54.93330 | 18.96128 | 27208 ft | 311 kts | 184° |
| 2026-05-08 05:12 | 54.91173 | 18.95907 | 27209 ft | 310 kts | 180° |
| 2026-05-08 05:12 | 54.89007 | 18.95936 | 27209 ft | 310 kts | 180° |
| 2026-05-08 05:12 | 54.86848 | 18.95981 | 27208 ft | 310 kts | 179° |
| 2026-05-08 05:12 | 54.84695 | 18.96032 | 27209 ft | 310 kts | 179° |
| 2026-05-08 05:13 | 54.82536 | 18.96087 | 27206 ft | 310 kts | 179° |
| 2026-05-08 05:13 | 54.80412 | 18.96142 | 27214 ft | 310 kts | 179° |
| 2026-05-08 05:13 | 54.78275 | 18.96199 | 27200 ft | 311 kts | 179° |
| 2026-05-08 05:13 | 54.76115 | 18.96257 | 27199 ft | 310 kts | 179° |
| 2026-05-08 05:14 | 54.73947 | 18.96316 | 27202 ft | 310 kts | 179° |
| 2026-05-08 05:14 | 54.71791 | 18.96375 | 27201 ft | 310 kts | 179° |
| 2026-05-08 05:14 | 54.69637 | 18.96433 | 27201 ft | 310 kts | 179° |
| 2026-05-08 05:14 | 54.67479 | 18.96492 | 27201 ft | 310 kts | 179° |
| 2026-05-08 05:15 | 54.65315 | 18.96550 | 27201 ft | 310 kts | 179° |
| 2026-05-08 05:15 | 54.63160 | 18.96610 | 27204 ft | 310 kts | 179° |
| 2026-05-08 05:15 | 54.61028 | 18.96667 | 27204 ft | 311 kts | 179° |
| 2026-05-08 05:15 | 54.58902 | 18.96724 | 27198 ft | 310 kts | 179° |
| 2026-05-08 05:16 | 54.56797 | 18.96781 | 27200 ft | 310 kts | 179° |
| 2026-05-08 05:16 | 54.54673 | 18.96839 | 27198 ft | 310 kts | 179° |
| 2026-05-08 05:16 | 54.52552 | 18.96896 | 27198 ft | 311 kts | 179° |
| 2026-05-08 05:16 | 54.50387 | 18.96954 | 27198 ft | 311 kts | 179° |
| 2026-05-08 05:17 | 54.48308 | 18.97010 | 27193 ft | 310 kts | 179° |
| 2026-05-08 05:17 | 54.46150 | 18.97068 | 27193 ft | 310 kts | 179° |
| 2026-05-08 05:17 | 54.44152 | 18.97122 | 27193 ft | 310 kts | 179° |
| 2026-05-08 05:17 | 54.42005 | 18.97180 | 27193 ft | 310 kts | 179° |
| 2026-05-08 05:18 | 54.39859 | 18.97237 | 27193 ft | 310 kts | 179° |
| 2026-05-08 05:18 | 54.37705 | 18.97295 | 27188 ft | 311 kts | 179° |
| 2026-05-08 05:18 | 54.35533 | 18.97353 | 27187 ft | 311 kts | 179° |
| 2026-05-08 05:18 | 54.33380 | 18.97411 | 27157 ft | 310 kts | 179° |
| 2026-05-08 05:19 | 54.31238 | 18.97468 | 27180 ft | 307 kts | 180° |
| 2026-05-08 05:19 | 54.29112 | 18.97525 | 27189 ft | 304 kts | 180° |
| 2026-05-08 05:19 | 54.27072 | 18.97580 | 27194 ft | 303 kts | 180° |
| 2026-05-08 05:19 | 54.24889 | 18.97638 | 27183 ft | 304 kts | 180° |
| 2026-05-08 05:20 | 54.22767 | 18.97694 | 27181 ft | 305 kts | 180° |
| 2026-05-08 05:20 | 54.20648 | 18.97751 | 27185 ft | 305 kts | 180° |
| 2026-05-08 05:20 | 54.18523 | 18.97807 | 27182 ft | 305 kts | 180° |
| 2026-05-08 05:20 | 54.16400 | 18.97864 | 27179 ft | 306 kts | 180° |
| 2026-05-08 05:21 | 54.14274 | 18.97920 | 27181 ft | 306 kts | 180° |
| 2026-05-08 05:21 | 54.12146 | 18.97976 | 27178 ft | 306 kts | 180° |
| 2026-05-08 05:21 | 54.10025 | 18.98033 | 27180 ft | 305 kts | 180° |
| 2026-05-08 05:21 | 54.07900 | 18.98090 | 27178 ft | 305 kts | 180° |
| 2026-05-08 05:22 | 54.05783 | 18.98146 | 27172 ft | 305 kts | 180° |
| 2026-05-08 05:22 | 54.03663 | 18.98201 | 27174 ft | 305 kts | 180° |
| 2026-05-08 05:22 | 54.01539 | 18.98257 | 27174 ft | 305 kts | 180° |
| 2026-05-08 05:22 | 53.99411 | 18.98313 | 27176 ft | 307 kts | 180° |
| 2026-05-08 05:23 | 53.97276 | 18.98368 | 27172 ft | 307 kts | 180° |
| 2026-05-08 05:23 | 53.95137 | 18.98425 | 27171 ft | 308 kts | 180° |
| 2026-05-08 05:23 | 53.93022 | 18.98481 | 27171 ft | 308 kts | 180° |
| 2026-05-08 05:23 | 53.90878 | 18.98538 | 27171 ft | 309 kts | 180° |
| 2026-05-08 05:24 | 53.88726 | 18.98594 | 27167 ft | 309 kts | 180° |
| 2026-05-08 05:24 | 53.86581 | 18.98650 | 27166 ft | 309 kts | 180° |
| 2026-05-08 05:24 | 53.84432 | 18.98706 | 27162 ft | 308 kts | 180° |
| 2026-05-08 05:24 | 53.82290 | 18.98762 | 27162 ft | 308 kts | 180° |
| 2026-05-08 05:25 | 53.80149 | 18.98819 | 27164 ft | 308 kts | 180° |
| 2026-05-08 05:25 | 53.78015 | 18.98874 | 27163 ft | 308 kts | 180° |
| 2026-05-08 05:25 | 53.75872 | 18.98930 | 27164 ft | 308 kts | 180° |
| 2026-05-08 05:25 | 53.73725 | 18.98986 | 27163 ft | 309 kts | 180° |
| 2026-05-08 05:26 | 53.71569 | 18.99042 | 27164 ft | 310 kts | 180° |
| 2026-05-08 05:26 | 53.69413 | 18.99098 | 27163 ft | 310 kts | 180° |
| 2026-05-08 05:26 | 53.67251 | 18.99154 | 27162 ft | 311 kts | 180° |
| 2026-05-08 05:26 | 53.65088 | 18.99211 | 27162 ft | 311 kts | 180° |
| 2026-05-08 05:27 | 53.62922 | 18.99267 | 27158 ft | 311 kts | 180° |
| 2026-05-08 05:27 | 53.60766 | 18.99323 | 27160 ft | 311 kts | 180° |
| 2026-05-08 05:27 | 53.58602 | 18.99379 | 27130 ft | 310 kts | 180° |
| 2026-05-08 05:27 | 53.56463 | 18.99434 | 27154 ft | 305 kts | 180° |
| 2026-05-08 05:28 | 53.54344 | 18.99488 | 27159 ft | 304 kts | 179° |
| 2026-05-08 05:28 | 53.52236 | 18.99543 | 27151 ft | 304 kts | 179° |
| 2026-05-08 05:28 | 53.50119 | 18.99595 | 27155 ft | 303 kts | 180° |
| 2026-05-08 05:28 | 53.48004 | 18.99647 | 27157 ft | 305 kts | 179° |
| 2026-05-08 05:29 | 53.45876 | 18.99709 | 27156 ft | 306 kts | 179° |
| 2026-05-08 05:29 | 53.43752 | 18.99763 | 27155 ft | 307 kts | 179° |
| 2026-05-08 05:29 | 53.41669 | 18.99816 | 27151 ft | 308 kts | 179° |
| 2026-05-08 05:29 | 53.39529 | 18.99870 | 27151 ft | 308 kts | 179° |
| 2026-05-08 05:30 | 53.37384 | 18.99924 | 27153 ft | 308 kts | 179° |
| 2026-05-08 05:30 | 53.35240 | 18.99979 | 27151 ft | 308 kts | 179° |
| 2026-05-08 05:30 | 53.33097 | 19.00035 | 27152 ft | 308 kts | 179° |
| 2026-05-08 05:30 | 53.30954 | 19.00090 | 27151 ft | 308 kts | 179° |
| 2026-05-08 05:31 | 53.28832 | 19.00144 | 27143 ft | 307 kts | 179° |
| 2026-05-08 05:31 | 53.26746 | 19.00197 | 27144 ft | 307 kts | 179° |
| 2026-05-08 05:31 | 53.24606 | 19.00252 | 27144 ft | 307 kts | 179° |
| 2026-05-08 05:31 | 53.22437 | 19.00307 | 27152 ft | 308 kts | 179° |
| 2026-05-08 05:32 | 53.20293 | 19.00361 | 27144 ft | 309 kts | 180° |
| 2026-05-08 05:32 | 53.18166 | 19.00416 | 27141 ft | 310 kts | 179° |
| 2026-05-08 05:32 | 53.16713 | 19.00453 | 27144 ft | 310 kts | 180° |
| 2026-05-08 05:32 | 53.14547 | 19.00507 | 27144 ft | 311 kts | 180° |
| 2026-05-08 05:33 | 53.12384 | 19.00561 | 27139 ft | 312 kts | 180° |
| 2026-05-08 05:33 | 53.10217 | 19.00788 | 27143 ft | 312 kts | 173° |
| 2026-05-08 05:33 | 53.08081 | 19.01475 | 27140 ft | 314 kts | 168° |
| 2026-05-08 05:33 | 53.05977 | 19.02436 | 27138 ft | 313 kts | 166° |
| 2026-05-08 05:34 | 53.03208 | 19.03789 | 27140 ft | 313 kts | 165° |
| 2026-05-08 05:34 | 53.01794 | 19.04495 | 27136 ft | 313 kts | 165° |
| 2026-05-08 05:34 | 52.99710 | 19.05554 | 27137 ft | 314 kts | 165° |
| 2026-05-08 05:34 | 52.97629 | 19.06617 | 27140 ft | 313 kts | 165° |
| 2026-05-08 05:35 | 52.95545 | 19.07688 | 27098 ft | 313 kts | 165° |
| 2026-05-08 05:35 | 52.93472 | 19.08754 | 27133 ft | 311 kts | 165° |
| 2026-05-08 05:35 | 52.91415 | 19.09812 | 27136 ft | 311 kts | 165° |
| 2026-05-08 05:35 | 52.89371 | 19.10861 | 27133 ft | 311 kts | 165° |
| 2026-05-08 05:36 | 52.87276 | 19.11938 | 27140 ft | 312 kts | 165° |
| 2026-05-08 05:36 | 52.85205 | 19.13002 | 27133 ft | 312 kts | 165° |
| 2026-05-08 05:36 | 52.83160 | 19.14051 | 27132 ft | 312 kts | 165° |
| 2026-05-08 05:36 | 52.81087 | 19.15114 | 27131 ft | 312 kts | 165° |
| 2026-05-08 05:37 | 52.79020 | 19.16172 | 27132 ft | 312 kts | 165° |
| 2026-05-08 05:37 | 52.76976 | 19.17218 | 27132 ft | 312 kts | 165° |
| 2026-05-08 05:37 | 52.74904 | 19.18277 | 27134 ft | 312 kts | 165° |
| 2026-05-08 05:37 | 52.72847 | 19.19326 | 27133 ft | 312 kts | 165° |
| 2026-05-08 05:38 | 52.70762 | 19.20388 | 27134 ft | 314 kts | 165° |
| 2026-05-08 05:38 | 52.68685 | 19.21457 | 27122 ft | 312 kts | 165° |
| 2026-05-08 05:38 | 52.66615 | 19.22505 | 27128 ft | 311 kts | 165° |
| 2026-05-08 05:38 | 52.64561 | 19.23545 | 27130 ft | 312 kts | 165° |
| 2026-05-08 05:39 | 52.62480 | 19.24601 | 27130 ft | 314 kts | 165° |
| 2026-05-08 05:39 | 52.60395 | 19.25660 | 27136 ft | 314 kts | 165° |
| 2026-05-08 05:39 | 52.58311 | 19.26716 | 27133 ft | 315 kts | 165° |
| 2026-05-08 05:39 | 52.56216 | 19.27775 | 27132 ft | 316 kts | 165° |
| 2026-05-08 05:40 | 52.54112 | 19.28831 | 27129 ft | 316 kts | 165° |
| 2026-05-08 05:40 | 52.52007 | 19.29885 | 27093 ft | 315 kts | 165° |
| 2026-05-08 05:40 | 52.49923 | 19.30935 | 27119 ft | 311 kts | 165° |
| 2026-05-08 05:40 | 52.47864 | 19.31971 | 27124 ft | 309 kts | 165° |
| 2026-05-08 05:41 | 52.45810 | 19.33006 | 27129 ft | 308 kts | 165° |
| 2026-05-08 05:41 | 52.43771 | 19.34032 | 27125 ft | 310 kts | 165° |
| 2026-05-08 05:41 | 52.41713 | 19.35068 | 27126 ft | 310 kts | 165° |
| 2026-05-08 05:41 | 52.39647 | 19.36104 | 27131 ft | 311 kts | 165° |
| 2026-05-08 05:42 | 52.37577 | 19.37142 | 27127 ft | 312 kts | 165° |
| 2026-05-08 05:42 | 52.35496 | 19.38185 | 27126 ft | 313 kts | 165° |
| 2026-05-08 05:42 | 52.33407 | 19.39231 | 27125 ft | 314 kts | 165° |
| 2026-05-08 05:42 | 52.31314 | 19.40277 | 27126 ft | 315 kts | 165° |
| 2026-05-08 05:43 | 52.29218 | 19.41325 | 27126 ft | 315 kts | 165° |
| 2026-05-08 05:43 | 52.27146 | 19.42360 | 27127 ft | 316 kts | 165° |
| 2026-05-08 05:43 | 52.25043 | 19.43409 | 27125 ft | 316 kts | 165° |
| 2026-05-08 05:43 | 52.22933 | 19.44461 | 27122 ft | 316 kts | 165° |
| 2026-05-08 05:44 | 52.20835 | 19.45505 | 27125 ft | 315 kts | 165° |
| 2026-05-08 05:44 | 52.18736 | 19.46549 | 27119 ft | 315 kts | 165° |
| 2026-05-08 05:44 | 52.16644 | 19.47589 | 27118 ft | 315 kts | 165° |
| 2026-05-08 05:44 | 52.14542 | 19.48632 | 27116 ft | 315 kts | 165° |
| 2026-05-08 05:45 | 52.12441 | 19.49674 | 27123 ft | 316 kts | 165° |
| 2026-05-08 05:45 | 52.10343 | 19.50714 | 27121 ft | 316 kts | 165° |
| 2026-05-08 05:45 | 52.08235 | 19.51747 | 27121 ft | 317 kts | 165° |
| 2026-05-08 05:45 | 52.06123 | 19.52784 | 27120 ft | 318 kts | 165° |
| 2026-05-08 05:46 | 52.04007 | 19.53827 | 27116 ft | 318 kts | 165° |
| 2026-05-08 05:46 | 52.01883 | 19.54872 | 27118 ft | 319 kts | 165° |
| 2026-05-08 05:46 | 51.99761 | 19.55918 | 27118 ft | 319 kts | 165° |
| 2026-05-08 05:46 | 51.97630 | 19.56967 | 27116 ft | 319 kts | 165° |
| 2026-05-08 05:47 | 51.95507 | 19.58012 | 27119 ft | 319 kts | 165° |
| 2026-05-08 05:47 | 51.93387 | 19.59055 | 27118 ft | 319 kts | 165° |
| 2026-05-08 05:47 | 51.91267 | 19.60096 | 27117 ft | 318 kts | 165° |
| 2026-05-08 05:47 | 51.89142 | 19.61137 | 27118 ft | 318 kts | 165° |
| 2026-05-08 05:48 | 51.87026 | 19.62171 | 27118 ft | 319 kts | 165° |
| 2026-05-08 05:48 | 51.84903 | 19.63209 | 27118 ft | 318 kts | 165° |
| 2026-05-08 05:48 | 51.82789 | 19.64240 | 27117 ft | 318 kts | 166° |
| 2026-05-08 05:48 | 51.80630 | 19.64824 | 27119 ft | 316 kts | 178° |
| 2026-05-08 05:49 | 51.78440 | 19.64751 | 27126 ft | 316 kts | 186° |
| 2026-05-08 05:49 | 51.76261 | 19.64276 | 27116 ft | 316 kts | 188° |
| 2026-05-08 05:49 | 51.74109 | 19.63726 | 27124 ft | 316 kts | 189° |
| 2026-05-08 05:49 | 51.71941 | 19.63126 | 27117 ft | 316 kts | 190° |
| 2026-05-08 05:50 | 51.69777 | 19.62501 | 27122 ft | 316 kts | 190° |
| 2026-05-08 05:50 | 51.67616 | 19.61863 | 27117 ft | 316 kts | 190° |
| 2026-05-08 05:50 | 51.65478 | 19.61225 | 27118 ft | 316 kts | 190° |
| 2026-05-08 05:50 | 51.63317 | 19.60577 | 27121 ft | 316 kts | 190° |
| 2026-05-08 05:51 | 51.61126 | 19.59919 | 27115 ft | 316 kts | 190° |
| 2026-05-08 05:51 | 51.59008 | 19.59281 | 27118 ft | 316 kts | 191° |
| 2026-05-08 05:51 | 51.56845 | 19.58631 | 27117 ft | 317 kts | 191° |
| 2026-05-08 05:51 | 51.54671 | 19.57976 | 27118 ft | 318 kts | 191° |
| 2026-05-08 05:52 | 51.52493 | 19.57322 | 27120 ft | 319 kts | 191° |
| 2026-05-08 05:52 | 51.50318 | 19.56669 | 27117 ft | 318 kts | 191° |
| 2026-05-08 05:52 | 51.48140 | 19.56016 | 27108 ft | 318 kts | 191° |
| 2026-05-08 05:52 | 51.45962 | 19.55364 | 27105 ft | 319 kts | 191° |
| 2026-05-08 05:53 | 51.43783 | 19.54712 | 27108 ft | 319 kts | 190° |
| 2026-05-08 05:53 | 51.41662 | 19.54077 | 27117 ft | 320 kts | 190° |
| 2026-05-08 05:53 | 51.39469 | 19.53421 | 27116 ft | 321 kts | 190° |
| 2026-05-08 05:53 | 51.37275 | 19.52766 | 27114 ft | 322 kts | 190° |
| 2026-05-08 05:54 | 51.35069 | 19.52108 | 27119 ft | 322 kts | 191° |
| 2026-05-08 05:54 | 51.32863 | 19.51451 | 27117 ft | 323 kts | 191° |
| 2026-05-08 05:54 | 51.30652 | 19.50794 | 27114 ft | 323 kts | 191° |
| 2026-05-08 05:54 | 51.28438 | 19.50136 | 27113 ft | 323 kts | 191° |
| 2026-05-08 05:55 | 51.26230 | 19.49480 | 27114 ft | 323 kts | 191° |
| 2026-05-08 05:55 | 51.24036 | 19.48829 | 27114 ft | 322 kts | 191° |
| 2026-05-08 05:55 | 51.21828 | 19.48175 | 27113 ft | 322 kts | 191° |
| 2026-05-08 05:55 | 51.19623 | 19.47523 | 27113 ft | 322 kts | 191° |
| 2026-05-08 05:56 | 51.17421 | 19.46871 | 27115 ft | 322 kts | 191° |
| 2026-05-08 05:56 | 51.15216 | 19.46220 | 27115 ft | 323 kts | 191° |
| 2026-05-08 05:56 | 51.13003 | 19.45566 | 27115 ft | 323 kts | 191° |
| 2026-05-08 05:56 | 51.10790 | 19.44914 | 27113 ft | 323 kts | 191° |
| 2026-05-08 05:57 | 51.08585 | 19.44265 | 27112 ft | 323 kts | 191° |
| 2026-05-08 05:57 | 51.06379 | 19.43616 | 27113 ft | 323 kts | 191° |
| 2026-05-08 05:57 | 51.04161 | 19.42964 | 27114 ft | 323 kts | 191° |
| 2026-05-08 05:57 | 51.01955 | 19.42316 | 27114 ft | 323 kts | 191° |
| 2026-05-08 05:58 | 50.99742 | 19.41667 | 27113 ft | 323 kts | 191° |
| 2026-05-08 05:58 | 50.97531 | 19.41019 | 27108 ft | 323 kts | 191° |
| 2026-05-08 05:58 | 50.95319 | 19.40372 | 27109 ft | 323 kts | 191° |
| 2026-05-08 05:58 | 50.93108 | 19.39725 | 27108 ft | 323 kts | 191° |
| 2026-05-08 05:59 | 50.90915 | 19.39085 | 27109 ft | 323 kts | 191° |
| 2026-05-08 05:59 | 50.88702 | 19.38439 | 27106 ft | 323 kts | 192° |
| 2026-05-08 05:59 | 50.86489 | 19.37793 | 27109 ft | 324 kts | 192° |
| 2026-05-08 05:59 | 50.84268 | 19.37146 | 27106 ft | 325 kts | 192° |
| 2026-05-08 06:00 | 50.82041 | 19.36498 | 27105 ft | 325 kts | 192° |
| 2026-05-08 06:00 | 50.79821 | 19.35854 | 27109 ft | 324 kts | 192° |
| 2026-05-08 06:00 | 50.77606 | 19.35209 | 27109 ft | 324 kts | 192° |
| 2026-05-08 06:00 | 50.75393 | 19.34567 | 27107 ft | 324 kts | 192° |
| 2026-05-08 06:01 | 50.73179 | 19.33925 | 27105 ft | 324 kts | 192° |
| 2026-05-08 06:01 | 50.70958 | 19.33282 | 27103 ft | 325 kts | 192° |
| 2026-05-08 06:01 | 50.68738 | 19.32640 | 27103 ft | 325 kts | 192° |
| 2026-05-08 06:01 | 50.66544 | 19.32006 | 27095 ft | 324 kts | 192° |
| 2026-05-08 06:02 | 50.64320 | 19.31362 | 27102 ft | 325 kts | 192° |
| 2026-05-08 06:02 | 50.62091 | 19.30720 | 27099 ft | 326 kts | 192° |
| 2026-05-08 06:02 | 50.59859 | 19.30082 | 27097 ft | 326 kts | 192° |
| 2026-05-08 06:02 | 50.57626 | 19.29436 | 27096 ft | 327 kts | 192° |
| 2026-05-08 06:03 | 50.55391 | 19.28792 | 27093 ft | 327 kts | 192° |
| 2026-05-08 06:03 | 50.53147 | 19.28148 | 27095 ft | 328 kts | 192° |
| 2026-05-08 06:03 | 50.50905 | 19.27504 | 27094 ft | 328 kts | 192° |
| 2026-05-08 06:03 | 50.48659 | 19.26859 | 27092 ft | 327 kts | 192° |
| 2026-05-08 06:04 | 50.46421 | 19.26217 | 27092 ft | 327 kts | 192° |
| 2026-05-08 06:04 | 50.44184 | 19.25577 | 27096 ft | 327 kts | 192° |
| 2026-05-08 06:04 | 50.41942 | 19.24937 | 27097 ft | 329 kts | 192° |
| 2026-05-08 06:04 | 50.39681 | 19.24290 | 27104 ft | 332 kts | 193° |
| 2026-05-08 06:05 | 50.37398 | 19.23637 | 27094 ft | 335 kts | 193° |
| 2026-05-08 06:05 | 50.35099 | 19.22982 | 27091 ft | 335 kts | 193° |
| 2026-05-08 06:05 | 50.32807 | 19.22330 | 27090 ft | 334 kts | 192° |
| 2026-05-08 06:05 | 50.30529 | 19.21682 | 27069 ft | 331 kts | 193° |
| 2026-05-08 06:06 | 50.28273 | 19.21042 | 27061 ft | 328 kts | 193° |
| 2026-05-08 06:06 | 50.26037 | 19.20407 | 27088 ft | 326 kts | 192° |
| 2026-05-08 06:06 | 50.23809 | 19.19774 | 27091 ft | 326 kts | 192° |
| 2026-05-08 06:06 | 50.21574 | 19.19140 | 27098 ft | 327 kts | 192° |
| 2026-05-08 06:07 | 50.19327 | 19.18504 | 27080 ft | 328 kts | 193° |
| 2026-05-08 06:07 | 50.17077 | 19.17868 | 27088 ft | 329 kts | 193° |
| 2026-05-08 06:07 | 50.14820 | 19.17229 | 27088 ft | 330 kts | 193° |
| 2026-05-08 06:07 | 50.12555 | 19.16590 | 27087 ft | 331 kts | 193° |
| 2026-05-08 06:08 | 50.10286 | 19.15950 | 27090 ft | 332 kts | 193° |
| 2026-05-08 06:08 | 50.08015 | 19.15310 | 27090 ft | 332 kts | 193° |
| 2026-05-08 06:08 | 50.05739 | 19.14670 | 27102 ft | 333 kts | 193° |
| 2026-05-08 06:08 | 50.03450 | 19.14025 | 27096 ft | 335 kts | 193° |
| 2026-05-08 06:09 | 50.01150 | 19.13379 | 27095 ft | 336 kts | 193° |
| 2026-05-08 06:09 | 49.98841 | 19.12731 | 27083 ft | 336 kts | 193° |
| 2026-05-08 06:09 | 49.96544 | 19.12087 | 27067 ft | 336 kts | 194° |
| 2026-05-08 06:09 | 49.94237 | 19.11441 | 27075 ft | 338 kts | 194° |
| 2026-05-08 06:10 | 49.91923 | 19.10793 | 27077 ft | 339 kts | 194° |
| 2026-05-08 06:10 | 49.89642 | 19.10156 | 27080 ft | 338 kts | 194° |
| 2026-05-08 06:10 | 49.87321 | 19.09507 | 27086 ft | 339 kts | 194° |
| 2026-05-08 06:10 | 49.85006 | 19.08861 | 27084 ft | 338 kts | 194° |
| 2026-05-08 06:11 | 49.82685 | 19.08214 | 27091 ft | 339 kts | 194° |
| 2026-05-08 06:11 | 49.80365 | 19.07567 | 27086 ft | 339 kts | 194° |
| 2026-05-08 06:11 | 49.78045 | 19.06922 | 27089 ft | 339 kts | 194° |
| 2026-05-08 06:11 | 49.75684 | 19.06266 | 27087 ft | 339 kts | 194° |
| 2026-05-08 06:12 | 49.73415 | 19.05636 | 27070 ft | 339 kts | 194° |
| 2026-05-08 06:12 | 49.71060 | 19.04983 | 27089 ft | 339 kts | 194° |
| 2026-05-08 06:12 | 49.68738 | 19.04339 | 27086 ft | 339 kts | 194° |
| 2026-05-08 06:12 | 49.66412 | 19.03694 | 27090 ft | 339 kts | 194° |
| 2026-05-08 06:13 | 49.64114 | 19.03059 | 27086 ft | 340 kts | 194° |
| 2026-05-08 06:13 | 49.61786 | 19.02416 | 27083 ft | 340 kts | 194° |
| 2026-05-08 06:13 | 49.59448 | 19.01770 | 27080 ft | 341 kts | 194° |
| 2026-05-08 06:13 | 49.57127 | 19.01130 | 27080 ft | 341 kts | 194° |
| 2026-05-08 06:14 | 49.54787 | 19.00486 | 27078 ft | 341 kts | 194° |
| 2026-05-08 06:14 | 49.52452 | 18.99843 | 27079 ft | 341 kts | 194° |
| 2026-05-08 06:14 | 49.50111 | 18.99200 | 27077 ft | 342 kts | 194° |
| 2026-05-08 06:14 | 49.47773 | 18.98557 | 27076 ft | 342 kts | 194° |
| 2026-05-08 06:15 | 49.45439 | 18.97858 | 27075 ft | 340 kts | 198° |
| 2026-05-08 06:15 | 49.43901 | 18.97215 | 27079 ft | 339 kts | 201° |
| 2026-05-08 06:15 | 49.41659 | 18.96097 | 27078 ft | 338 kts | 202° |
| 2026-05-08 06:15 | 49.39436 | 18.94936 | 27076 ft | 339 kts | 203° |
| 2026-05-08 06:16 | 49.37210 | 18.93750 | 27080 ft | 339 kts | 203° |
| 2026-05-08 06:16 | 49.34983 | 18.92552 | 27080 ft | 339 kts | 204° |
| 2026-05-08 06:16 | 49.32753 | 18.91347 | 27074 ft | 340 kts | 204° |
| 2026-05-08 06:16 | 49.30523 | 18.90142 | 27052 ft | 339 kts | 204° |
| 2026-05-08 06:17 | 49.26079 | 18.87738 | 27069 ft | 339 kts | 204° |
| 2026-05-08 06:17 | 49.23866 | 18.86542 | 27070 ft | 339 kts | 204° |
| 2026-05-08 06:17 | 49.21641 | 18.85340 | 27069 ft | 339 kts | 204° |
| 2026-05-08 06:18 | 49.19419 | 18.84142 | 27065 ft | 339 kts | 204° |
| 2026-05-08 06:18 | 49.17191 | 18.82942 | 27068 ft | 339 kts | 204° |
| 2026-05-08 06:18 | 49.14972 | 18.81746 | 27073 ft | 339 kts | 204° |
| 2026-05-08 06:18 | 49.12741 | 18.80546 | 27064 ft | 340 kts | 204° |
| 2026-05-08 06:19 | 49.10514 | 18.79350 | 27059 ft | 340 kts | 204° |
| 2026-05-08 06:19 | 49.08280 | 18.78152 | 27056 ft | 339 kts | 204° |
| 2026-05-08 06:19 | 49.06070 | 18.76966 | 27066 ft | 339 kts | 204° |
| 2026-05-08 06:19 | 49.03842 | 18.75772 | 27062 ft | 340 kts | 204° |
| 2026-05-08 06:20 | 49.01613 | 18.74580 | 27057 ft | 339 kts | 204° |
| 2026-05-08 06:20 | 48.99387 | 18.73390 | 27062 ft | 339 kts | 204° |
| 2026-05-08 06:20 | 48.97162 | 18.72202 | 27055 ft | 339 kts | 204° |
| 2026-05-08 06:20 | 48.94933 | 18.71013 | 27050 ft | 339 kts | 204° |
| 2026-05-08 06:21 | 48.92703 | 18.69825 | 27069 ft | 339 kts | 204° |
| 2026-05-08 06:21 | 48.90503 | 18.68653 | 27059 ft | 339 kts | 204° |
| 2026-05-08 06:21 | 48.88273 | 18.67467 | 27048 ft | 339 kts | 204° |
| 2026-05-08 06:21 | 48.86045 | 18.66283 | 27063 ft | 339 kts | 204° |
| 2026-05-08 06:22 | 48.83817 | 18.65101 | 27057 ft | 340 kts | 204° |
| 2026-05-08 06:22 | 48.81584 | 18.63916 | 27057 ft | 340 kts | 204° |
| 2026-05-08 06:22 | 48.79356 | 18.62736 | 27062 ft | 339 kts | 204° |
| 2026-05-08 06:22 | 48.77125 | 18.61556 | 27062 ft | 339 kts | 204° |
| 2026-05-08 06:23 | 48.74898 | 18.60378 | 27060 ft | 339 kts | 204° |
| 2026-05-08 06:23 | 48.72676 | 18.59204 | 27060 ft | 339 kts | 204° |
| 2026-05-08 06:23 | 48.70443 | 18.58026 | 27059 ft | 339 kts | 204° |
| 2026-05-08 06:23 | 48.68214 | 18.56847 | 27047 ft | 339 kts | 205° |
| 2026-05-08 06:24 | 48.66032 | 18.55645 | 27055 ft | 338 kts | 205° |
| 2026-05-08 06:24 | 48.63799 | 18.54403 | 27056 ft | 338 kts | 205° |
| 2026-05-08 06:24 | 48.61622 | 18.53192 | 27050 ft | 338 kts | 205° |
| 2026-05-08 06:24 | 48.59391 | 18.51951 | 27055 ft | 338 kts | 205° |
| 2026-05-08 06:25 | 48.57193 | 18.50728 | 27050 ft | 337 kts | 205° |
| 2026-05-08 06:25 | 48.55022 | 18.49522 | 27059 ft | 337 kts | 205° |
| 2026-05-08 06:25 | 48.52825 | 18.48301 | 27060 ft | 336 kts | 205° |
| 2026-05-08 06:25 | 48.50629 | 18.47083 | 27061 ft | 336 kts | 205° |
| 2026-05-08 06:26 | 48.48436 | 18.45867 | 27063 ft | 336 kts | 205° |
| 2026-05-08 06:26 | 48.46240 | 18.44651 | 27038 ft | 336 kts | 205° |
| 2026-05-08 06:26 | 48.44018 | 18.43421 | 27066 ft | 336 kts | 206° |
| 2026-05-08 06:26 | 48.41834 | 18.42214 | 27060 ft | 336 kts | 205° |
| 2026-05-08 06:27 | 48.39642 | 18.41004 | 27054 ft | 336 kts | 205° |
| 2026-05-08 06:27 | 48.37444 | 18.39791 | 27066 ft | 336 kts | 205° |
| 2026-05-08 06:27 | 48.35250 | 18.38582 | 27063 ft | 336 kts | 205° |
| 2026-05-08 06:27 | 48.33051 | 18.37371 | 27058 ft | 336 kts | 205° |
| 2026-05-08 06:28 | 48.30851 | 18.36161 | 27065 ft | 336 kts | 205° |
| 2026-05-08 06:28 | 48.28654 | 18.34954 | 27059 ft | 336 kts | 205° |
| 2026-05-08 06:28 | 48.26457 | 18.33749 | 27037 ft | 336 kts | 205° |
| 2026-05-08 06:28 | 48.24273 | 18.32551 | 27059 ft | 335 kts | 205° |
| 2026-05-08 06:29 | 48.22080 | 18.31349 | 27068 ft | 335 kts | 205° |
| 2026-05-08 06:29 | 48.19888 | 18.30149 | 27064 ft | 335 kts | 205° |
| 2026-05-08 06:29 | 48.17699 | 18.28952 | 27064 ft | 335 kts | 205° |
| 2026-05-08 06:29 | 48.15506 | 18.27753 | 27064 ft | 335 kts | 205° |
| 2026-05-08 06:30 | 48.13307 | 18.26553 | 27064 ft | 335 kts | 205° |
| 2026-05-08 06:30 | 48.11118 | 18.25360 | 27067 ft | 335 kts | 205° |
| 2026-05-08 06:30 | 48.08948 | 18.24178 | 27068 ft | 335 kts | 205° |
| 2026-05-08 06:30 | 48.06755 | 18.22984 | 27068 ft | 335 kts | 205° |
| 2026-05-08 06:31 | 48.04565 | 18.21793 | 27062 ft | 335 kts | 205° |
| 2026-05-08 06:31 | 48.02376 | 18.20604 | 27073 ft | 334 kts | 205° |
| 2026-05-08 06:31 | 48.00194 | 18.19420 | 27071 ft | 334 kts | 205° |
| 2026-05-08 06:31 | 47.98004 | 18.18232 | 27070 ft | 334 kts | 205° |
| 2026-05-08 06:32 | 47.95824 | 18.17050 | 27070 ft | 334 kts | 205° |
| 2026-05-08 06:32 | 47.93642 | 18.15869 | 27071 ft | 334 kts | 205° |
| 2026-05-08 06:32 | 47.91477 | 18.14698 | 27070 ft | 333 kts | 205° |
| 2026-05-08 06:32 | 47.89293 | 18.13518 | 27073 ft | 333 kts | 205° |
| 2026-05-08 06:33 | 47.87114 | 18.12342 | 27074 ft | 333 kts | 205° |
| 2026-05-08 06:33 | 47.84932 | 18.11165 | 27057 ft | 333 kts | 205° |
| 2026-05-08 06:33 | 47.82754 | 18.09993 | 27073 ft | 333 kts | 205° |
| 2026-05-08 06:33 | 47.80576 | 18.08820 | 27077 ft | 333 kts | 206° |
| 2026-05-08 06:34 | 47.78404 | 18.07651 | 27074 ft | 333 kts | 205° |
| 2026-05-08 06:34 | 47.76230 | 18.06484 | 27074 ft | 333 kts | 205° |
| 2026-05-08 06:34 | 47.74010 | 18.05453 | 27077 ft | 334 kts | 202° |
| 2026-05-08 06:34 | 47.71783 | 18.04469 | 27077 ft | 334 kts | 202° |
| 2026-05-08 06:35 | 47.69556 | 18.03477 | 27082 ft | 334 kts | 202° |
| 2026-05-08 06:35 | 47.67323 | 18.02480 | 27078 ft | 334 kts | 202° |
| 2026-05-08 06:35 | 47.65098 | 18.01484 | 27069 ft | 334 kts | 202° |
| 2026-05-08 06:35 | 47.62870 | 18.00489 | 27073 ft | 334 kts | 203° |
| 2026-05-08 06:36 | 47.60645 | 17.99494 | 27079 ft | 333 kts | 203° |
| 2026-05-08 06:36 | 47.58434 | 17.98507 | 27081 ft | 333 kts | 203° |
| 2026-05-08 06:36 | 47.56213 | 17.97517 | 27081 ft | 333 kts | 203° |
| 2026-05-08 06:36 | 47.53999 | 17.96529 | 27081 ft | 333 kts | 203° |
| 2026-05-08 06:37 | 47.51777 | 17.95540 | 27085 ft | 333 kts | 202° |
| 2026-05-08 06:37 | 47.49558 | 17.94553 | 27080 ft | 333 kts | 203° |
| 2026-05-08 06:37 | 47.47342 | 17.93568 | 27086 ft | 333 kts | 202° |
| 2026-05-08 06:37 | 47.45124 | 17.92583 | 27084 ft | 333 kts | 202° |
| 2026-05-08 06:38 | 47.42911 | 17.91600 | 27081 ft | 333 kts | 202° |
| 2026-05-08 06:38 | 47.40710 | 17.90625 | 27084 ft | 334 kts | 202° |
| 2026-05-08 06:38 | 47.38491 | 17.89643 | 27082 ft | 334 kts | 202° |
| 2026-05-08 06:38 | 47.36265 | 17.88658 | 27082 ft | 334 kts | 202° |
| 2026-05-08 06:39 | 47.34044 | 17.87677 | 27077 ft | 333 kts | 202° |
| 2026-05-08 06:39 | 47.31822 | 17.86695 | 27081 ft | 333 kts | 202° |
| 2026-05-08 06:39 | 47.29601 | 17.85715 | 27083 ft | 333 kts | 202° |
| 2026-05-08 06:39 | 47.27375 | 17.84735 | 27080 ft | 334 kts | 202° |
| 2026-05-08 06:40 | 47.25168 | 17.83762 | 27083 ft | 333 kts | 202° |
| 2026-05-08 06:40 | 47.22946 | 17.82784 | 27074 ft | 333 kts | 203° |
| 2026-05-08 06:40 | 47.20731 | 17.81810 | 27084 ft | 332 kts | 203° |
| 2026-05-08 06:40 | 47.18509 | 17.80834 | 27097 ft | 332 kts | 203° |
| 2026-05-08 06:41 | 47.16295 | 17.79863 | 27090 ft | 333 kts | 203° |
| 2026-05-08 06:41 | 47.14076 | 17.78889 | 27085 ft | 332 kts | 203° |
| 2026-05-08 06:41 | 47.11863 | 17.77920 | 27088 ft | 332 kts | 203° |
| 2026-05-08 06:41 | 47.09655 | 17.76954 | 27080 ft | 332 kts | 203° |
| 2026-05-08 06:42 | 47.07444 | 17.75987 | 27076 ft | 332 kts | 203° |
| 2026-05-08 06:42 | 47.05228 | 17.75019 | 27077 ft | 332 kts | 203° |
| 2026-05-08 06:42 | 47.03022 | 17.74057 | 27075 ft | 332 kts | 203° |
| 2026-05-08 06:42 | 47.00809 | 17.73091 | 27078 ft | 332 kts | 203° |
| 2026-05-08 06:43 | 46.98597 | 17.72127 | 27081 ft | 332 kts | 203° |
| 2026-05-08 06:43 | 46.96385 | 17.71164 | 27083 ft | 332 kts | 203° |
| 2026-05-08 06:43 | 46.94173 | 17.70202 | 27076 ft | 331 kts | 203° |
| 2026-05-08 06:43 | 46.91968 | 17.69244 | 27087 ft | 331 kts | 203° |
| 2026-05-08 06:44 | 46.89755 | 17.68283 | 27086 ft | 332 kts | 203° |
| 2026-05-08 06:44 | 46.87541 | 17.67323 | 27086 ft | 332 kts | 203° |
| 2026-05-08 06:44 | 46.85334 | 17.66367 | 27070 ft | 331 kts | 203° |
| 2026-05-08 06:44 | 46.83125 | 17.65410 | 27070 ft | 330 kts | 203° |
| 2026-05-08 06:45 | 46.80925 | 17.64458 | 27082 ft | 330 kts | 203° |
| 2026-05-08 06:45 | 46.78727 | 17.63508 | 27080 ft | 329 kts | 203° |
| 2026-05-08 06:45 | 46.76537 | 17.62562 | 27087 ft | 329 kts | 203° |
| 2026-05-08 06:45 | 46.74341 | 17.61614 | 27094 ft | 329 kts | 203° |
| 2026-05-08 06:46 | 46.72143 | 17.60667 | 27083 ft | 329 kts | 203° |
| 2026-05-08 06:46 | 46.69947 | 17.59721 | 27087 ft | 329 kts | 203° |
| 2026-05-08 06:46 | 46.67749 | 17.58775 | 27088 ft | 329 kts | 203° |
| 2026-05-08 06:46 | 46.65581 | 17.57844 | 27089 ft | 330 kts | 203° |
| 2026-05-08 06:47 | 46.63433 | 17.56922 | 27070 ft | 329 kts | 203° |
| 2026-05-08 06:47 | 46.61255 | 17.55986 | 27090 ft | 328 kts | 203° |
| 2026-05-08 06:47 | 46.59071 | 17.55048 | 27088 ft | 328 kts | 203° |
| 2026-05-08 06:47 | 46.56883 | 17.54111 | 27085 ft | 328 kts | 203° |
| 2026-05-08 06:48 | 46.54700 | 17.53176 | 27086 ft | 327 kts | 203° |
| 2026-05-08 06:48 | 46.52511 | 17.52239 | 27086 ft | 327 kts | 203° |
| 2026-05-08 06:48 | 46.50328 | 17.51306 | 27086 ft | 327 kts | 203° |
| 2026-05-08 06:48 | 46.48143 | 17.50373 | 27085 ft | 327 kts | 203° |
| 2026-05-08 06:49 | 46.45966 | 17.49445 | 27087 ft | 327 kts | 203° |
| 2026-05-08 06:49 | 46.43789 | 17.48517 | 27074 ft | 327 kts | 203° |
| 2026-05-08 06:49 | 46.41607 | 17.47587 | 27088 ft | 326 kts | 203° |
| 2026-05-08 06:49 | 46.39434 | 17.46661 | 27087 ft | 327 kts | 203° |
| 2026-05-08 06:50 | 46.37250 | 17.45734 | 27084 ft | 326 kts | 203° |
| 2026-05-08 06:50 | 46.35073 | 17.44809 | 27090 ft | 327 kts | 203° |
| 2026-05-08 06:50 | 46.32886 | 17.43881 | 27086 ft | 327 kts | 203° |
| 2026-05-08 06:50 | 46.30700 | 17.42953 | 27084 ft | 327 kts | 203° |
| 2026-05-08 06:51 | 46.28513 | 17.42025 | 27089 ft | 327 kts | 203° |
| 2026-05-08 06:51 | 46.26330 | 17.41101 | 27089 ft | 327 kts | 203° |
| 2026-05-08 06:51 | 46.24144 | 17.40176 | 27074 ft | 327 kts | 203° |
| 2026-05-08 06:51 | 46.21963 | 17.39254 | 27087 ft | 326 kts | 203° |
| 2026-05-08 06:52 | 46.19785 | 17.38333 | 27091 ft | 326 kts | 203° |
| 2026-05-08 06:52 | 46.17604 | 17.37413 | 27093 ft | 326 kts | 203° |
| 2026-05-08 06:52 | 46.15424 | 17.36493 | 27080 ft | 327 kts | 203° |
| 2026-05-08 06:52 | 46.13246 | 17.35576 | 27093 ft | 326 kts | 203° |
| 2026-05-08 06:53 | 46.11068 | 17.34659 | 27085 ft | 326 kts | 203° |
| 2026-05-08 06:53 | 46.08958 | 17.33771 | 27087 ft | 326 kts | 203° |
| 2026-05-08 06:53 | 46.07502 | 17.33159 | 27085 ft | 326 kts | 203° |
| 2026-05-08 06:53 | 46.05316 | 17.32240 | 27066 ft | 325 kts | 202° |
| 2026-05-08 06:54 | 46.03145 | 17.31329 | 27089 ft | 325 kts | 202° |
| 2026-05-08 06:54 | 46.00969 | 17.30417 | 27094 ft | 325 kts | 202° |
| 2026-05-08 06:54 | 45.98801 | 17.29496 | 27091 ft | 325 kts | 204° |
| 2026-05-08 06:54 | 45.96661 | 17.28488 | 27092 ft | 324 kts | 204° |
| 2026-05-08 06:55 | 45.94524 | 17.27459 | 27090 ft | 324 kts | 205° |
| 2026-05-08 06:55 | 45.92387 | 17.26426 | 27088 ft | 324 kts | 205° |
| 2026-05-08 06:55 | 45.90250 | 17.25391 | 27094 ft | 324 kts | 205° |
| 2026-05-08 06:55 | 45.88108 | 17.24353 | 27092 ft | 325 kts | 205° |
| 2026-05-08 06:56 | 45.85971 | 17.23319 | 27082 ft | 324 kts | 204° |
| 2026-05-08 06:56 | 45.83832 | 17.22283 | 27092 ft | 324 kts | 204° |
| 2026-05-08 06:56 | 45.81698 | 17.21251 | 27096 ft | 324 kts | 204° |
| 2026-05-08 06:56 | 45.79557 | 17.20216 | 27097 ft | 324 kts | 204° |
| 2026-05-08 06:57 | 45.77422 | 17.19185 | 27095 ft | 324 kts | 204° |
| 2026-05-08 06:57 | 45.75278 | 17.18150 | 27095 ft | 325 kts | 204° |
| 2026-05-08 06:57 | 45.73138 | 17.17118 | 27096 ft | 325 kts | 204° |
| 2026-05-08 06:57 | 45.70993 | 17.16084 | 27093 ft | 325 kts | 204° |
| 2026-05-08 06:58 | 45.68852 | 17.15053 | 27096 ft | 325 kts | 204° |
| 2026-05-08 06:58 | 45.66702 | 17.14020 | 27086 ft | 326 kts | 204° |
| 2026-05-08 06:58 | 45.64561 | 17.12991 | 27097 ft | 325 kts | 204° |
| 2026-05-08 06:58 | 45.62416 | 17.11961 | 27089 ft | 325 kts | 204° |
| 2026-05-08 06:59 | 45.60283 | 17.10937 | 27085 ft | 325 kts | 204° |
| 2026-05-08 06:59 | 45.58139 | 17.09910 | 27087 ft | 325 kts | 204° |
| 2026-05-08 06:59 | 45.55998 | 17.08885 | 27091 ft | 325 kts | 204° |
| 2026-05-08 06:59 | 45.53852 | 17.07858 | 27089 ft | 325 kts | 204° |
| 2026-05-08 07:00 | 45.51737 | 17.06846 | 27091 ft | 325 kts | 204° |
| 2026-05-08 07:00 | 45.49568 | 17.05811 | 27095 ft | 325 kts | 204° |
| 2026-05-08 07:00 | 45.47451 | 17.04800 | 27095 ft | 325 kts | 204° |
| 2026-05-08 07:00 | 45.45308 | 17.03778 | 27095 ft | 325 kts | 204° |
| 2026-05-08 07:01 | 45.43150 | 17.02751 | 27094 ft | 324 kts | 204° |
| 2026-05-08 07:01 | 45.41031 | 17.01742 | 27093 ft | 324 kts | 203° |
| 2026-05-08 07:01 | 45.38863 | 17.00710 | 27091 ft | 325 kts | 203° |
| 2026-05-08 07:01 | 45.36718 | 16.99691 | 27090 ft | 325 kts | 203° |
| 2026-05-08 07:02 | 45.34605 | 16.98687 | 27095 ft | 325 kts | 203° |
| 2026-05-08 07:02 | 45.32460 | 16.97670 | 27095 ft | 325 kts | 203° |
| 2026-05-08 07:02 | 45.30317 | 16.96654 | 27093 ft | 325 kts | 203° |
| 2026-05-08 07:02 | 45.28171 | 16.95638 | 27086 ft | 325 kts | 203° |
| 2026-05-08 07:03 | 45.26035 | 16.94627 | 27096 ft | 325 kts | 203° |
| 2026-05-08 07:03 | 45.23888 | 16.93611 | 27096 ft | 325 kts | 203° |
| 2026-05-08 07:03 | 45.21741 | 16.92598 | 27094 ft | 326 kts | 203° |
| 2026-05-08 07:03 | 45.19592 | 16.91582 | 27094 ft | 326 kts | 203° |
| 2026-05-08 07:04 | 45.17439 | 16.90567 | 27101 ft | 326 kts | 203° |
| 2026-05-08 07:04 | 45.15290 | 16.89554 | 27098 ft | 326 kts | 203° |
| 2026-05-08 07:04 | 45.13130 | 16.88537 | 27094 ft | 326 kts | 203° |
| 2026-05-08 07:04 | 45.10990 | 16.87530 | 27097 ft | 326 kts | 203° |
| 2026-05-08 07:05 | 45.08835 | 16.86517 | 27098 ft | 326 kts | 202° |
| 2026-05-08 07:05 | 45.06680 | 16.85505 | 27099 ft | 327 kts | 203° |
| 2026-05-08 07:05 | 45.04526 | 16.84493 | 27096 ft | 327 kts | 202° |
| 2026-05-08 07:05 | 45.02366 | 16.83480 | 27094 ft | 327 kts | 203° |
| 2026-05-08 07:06 | 45.00212 | 16.82470 | 27102 ft | 327 kts | 202° |
| 2026-05-08 07:06 | 44.98052 | 16.81458 | 27096 ft | 327 kts | 202° |
| 2026-05-08 07:06 | 44.95885 | 16.80444 | 27094 ft | 328 kts | 202° |
| 2026-05-08 07:06 | 44.93722 | 16.79413 | 27094 ft | 328 kts | 203° |
| 2026-05-08 07:07 | 44.91566 | 16.78371 | 27079 ft | 328 kts | 203° |
| 2026-05-08 07:07 | 44.89410 | 16.77322 | 27092 ft | 328 kts | 203° |
| 2026-05-08 07:07 | 44.87256 | 16.76277 | 27096 ft | 328 kts | 203° |
| 2026-05-08 07:07 | 44.85098 | 16.75230 | 27090 ft | 327 kts | 203° |
| 2026-05-08 07:08 | 44.82948 | 16.74186 | 27091 ft | 327 kts | 203° |
| 2026-05-08 07:08 | 44.80793 | 16.73137 | 27093 ft | 327 kts | 203° |
| 2026-05-08 07:08 | 44.78642 | 16.72093 | 27091 ft | 328 kts | 203° |
| 2026-05-08 07:08 | 44.76484 | 16.71047 | 27084 ft | 328 kts | 203° |
| 2026-05-08 07:09 | 44.74324 | 16.69999 | 27084 ft | 328 kts | 203° |
| 2026-05-08 07:09 | 44.72165 | 16.68954 | 27079 ft | 328 kts | 202° |
| 2026-05-08 07:09 | 44.70002 | 16.67907 | 27081 ft | 328 kts | 202° |
| 2026-05-08 07:09 | 44.67844 | 16.66864 | 27084 ft | 328 kts | 202° |
| 2026-05-08 07:10 | 44.65688 | 16.65822 | 27084 ft | 328 kts | 202° |
| 2026-05-08 07:10 | 44.63526 | 16.64778 | 27083 ft | 328 kts | 202° |
| 2026-05-08 07:10 | 44.61401 | 16.63754 | 27083 ft | 328 kts | 202° |
| 2026-05-08 07:10 | 44.59213 | 16.62699 | 27077 ft | 329 kts | 202° |
| 2026-05-08 07:11 | 44.57047 | 16.61656 | 27083 ft | 329 kts | 202° |
| 2026-05-08 07:11 | 44.54885 | 16.60616 | 27073 ft | 329 kts | 202° |
| 2026-05-08 07:11 | 44.52720 | 16.59576 | 27077 ft | 329 kts | 202° |
| 2026-05-08 07:11 | 44.50553 | 16.58536 | 27077 ft | 329 kts | 202° |
| 2026-05-08 07:12 | 44.48381 | 16.57493 | 27079 ft | 329 kts | 202° |
| 2026-05-08 07:12 | 44.46212 | 16.56453 | 27082 ft | 330 kts | 202° |
| 2026-05-08 07:12 | 44.44041 | 16.55414 | 27069 ft | 330 kts | 202° |
| 2026-05-08 07:12 | 44.41877 | 16.54378 | 27074 ft | 330 kts | 202° |
| 2026-05-08 07:13 | 44.39705 | 16.53339 | 27079 ft | 330 kts | 202° |
| 2026-05-08 07:13 | 44.37556 | 16.52311 | 27071 ft | 331 kts | 202° |
| 2026-05-08 07:13 | 44.35348 | 16.51257 | 27063 ft | 330 kts | 201° |